<?xml version="1.0" encoding="UTF-8" standalone="no" ?>
<gpx xmlns="http://www.topografix.com/GPX/1/1" xmlns:xsi="http://www.w3.org/2001/XMLSchema-instance" xsi:schemaLocation="http://www.topografix.com/GPX/1/1 http://www.topografix.com/GPX/1/1/gpx.xsd" version="1.1" creator="VisuGPX - https://www.visugpx.com">
  <metadata>
    <name>Balade à 4 les deux jeunes en dextre !</name>
    <desc><![CDATA[Belle petite balade, un peu technique pour avoir pris des \"chemins\" qui n\'en étaient pas ... à 4, Batou (3ans) et Dipti (1 an) se sont très bien comportés, même dans les difficultés, aucun mouvement de panique... Ah si, Dipti  devant un tout petit chien de rien (derrière un grillage) alors qu\'on venait de passer devant un gros doberman !! elle a fait un bond en avant et sur sa mère]]></desc>
  </metadata>
  <trk>
    <name><![CDATA[Untitled]]></name>
    <trkseg>
      <trkpt lat="48.70448" lon="1.7545">
        <ele>182.80000305176</ele>
        <time>2014-06-03T13:32:27.000Z</time>
      </trkpt>
      <trkpt lat="48.70451" lon="1.75444">
        <ele>182.39999389648</ele>
        <time>2014-06-03T13:32:34.000Z</time>
      </trkpt>
      <trkpt lat="48.70448" lon="1.75441">
        <ele>182.39999389648</ele>
        <time>2014-06-03T13:32:40.000Z</time>
      </trkpt>
      <trkpt lat="48.70444" lon="1.75435">
        <ele>182.39999389648</ele>
        <time>2014-06-03T13:32:46.000Z</time>
      </trkpt>
      <trkpt lat="48.7044" lon="1.75434">
        <ele>182.60000610352</ele>
        <time>2014-06-03T13:32:50.000Z</time>
      </trkpt>
      <trkpt lat="48.70432" lon="1.75433">
        <ele>182.60000610352</ele>
        <time>2014-06-03T13:32:56.000Z</time>
      </trkpt>
      <trkpt lat="48.70428" lon="1.75429">
        <ele>182.60000610352</ele>
        <time>2014-06-03T13:33:02.000Z</time>
      </trkpt>
      <trkpt lat="48.70426" lon="1.7543">
        <ele>182.39999389648</ele>
        <time>2014-06-03T13:33:05.000Z</time>
      </trkpt>
      <trkpt lat="48.70422" lon="1.75428">
        <ele>182.39999389648</ele>
        <time>2014-06-03T13:33:17.000Z</time>
      </trkpt>
      <trkpt lat="48.70407" lon="1.7542">
        <ele>182</ele>
        <time>2014-06-03T13:33:42.000Z</time>
      </trkpt>
      <trkpt lat="48.704" lon="1.75409">
        <ele>181.60000610352</ele>
        <time>2014-06-03T13:33:49.000Z</time>
      </trkpt>
      <trkpt lat="48.70401" lon="1.75407">
        <ele>181.60000610352</ele>
        <time>2014-06-03T13:33:54.000Z</time>
      </trkpt>
      <trkpt lat="48.70401" lon="1.75407">
        <ele>181.60000610352</ele>
        <time>2014-06-03T13:33:56.000Z</time>
      </trkpt>
      <trkpt lat="48.704" lon="1.75408">
        <ele>181.60000610352</ele>
        <time>2014-06-03T13:33:59.000Z</time>
      </trkpt>
      <trkpt lat="48.70399" lon="1.75409">
        <ele>181.60000610352</ele>
        <time>2014-06-03T13:34:00.000Z</time>
      </trkpt>
      <trkpt lat="48.70398" lon="1.75409">
        <ele>181.60000610352</ele>
        <time>2014-06-03T13:34:06.000Z</time>
      </trkpt>
      <trkpt lat="48.70396" lon="1.75408">
        <ele>181.60000610352</ele>
        <time>2014-06-03T13:34:08.000Z</time>
      </trkpt>
      <trkpt lat="48.70394" lon="1.75405">
        <ele>181.60000610352</ele>
        <time>2014-06-03T13:34:10.000Z</time>
      </trkpt>
      <trkpt lat="48.70392" lon="1.75405">
        <ele>181.39999389648</ele>
        <time>2014-06-03T13:34:12.000Z</time>
      </trkpt>
      <trkpt lat="48.70389" lon="1.7541">
        <ele>181.60000610352</ele>
        <time>2014-06-03T13:34:18.000Z</time>
      </trkpt>
      <trkpt lat="48.70384" lon="1.7541">
        <ele>181.39999389648</ele>
        <time>2014-06-03T13:34:24.000Z</time>
      </trkpt>
      <trkpt lat="48.7038" lon="1.75407">
        <ele>181.39999389648</ele>
        <time>2014-06-03T13:34:27.000Z</time>
      </trkpt>
      <trkpt lat="48.70374" lon="1.75396">
        <ele>181.19999694824</ele>
        <time>2014-06-03T13:34:34.000Z</time>
      </trkpt>
      <trkpt lat="48.7037" lon="1.75386">
        <ele>181.19999694824</ele>
        <time>2014-06-03T13:34:42.000Z</time>
      </trkpt>
      <trkpt lat="48.70367" lon="1.75384">
        <ele>181.19999694824</ele>
        <time>2014-06-03T13:34:45.000Z</time>
      </trkpt>
      <trkpt lat="48.70359" lon="1.75378">
        <ele>181</ele>
        <time>2014-06-03T13:34:52.000Z</time>
      </trkpt>
      <trkpt lat="48.70353" lon="1.7537">
        <ele>181</ele>
        <time>2014-06-03T13:34:57.000Z</time>
      </trkpt>
      <trkpt lat="48.70348" lon="1.75367">
        <ele>180.80000305176</ele>
        <time>2014-06-03T13:35:00.000Z</time>
      </trkpt>
      <trkpt lat="48.70343" lon="1.75363">
        <ele>180.80000305176</ele>
        <time>2014-06-03T13:35:04.000Z</time>
      </trkpt>
      <trkpt lat="48.70339" lon="1.75361">
        <ele>180.60000610352</ele>
        <time>2014-06-03T13:35:06.000Z</time>
      </trkpt>
      <trkpt lat="48.70333" lon="1.75354">
        <ele>180.60000610352</ele>
        <time>2014-06-03T13:35:12.000Z</time>
      </trkpt>
      <trkpt lat="48.7033" lon="1.75349">
        <ele>180.39999389648</ele>
        <time>2014-06-03T13:35:16.000Z</time>
      </trkpt>
      <trkpt lat="48.70322" lon="1.75341">
        <ele>180.19999694824</ele>
        <time>2014-06-03T13:35:25.000Z</time>
      </trkpt>
      <trkpt lat="48.70322" lon="1.75336">
        <ele>180.19999694824</ele>
        <time>2014-06-03T13:35:31.000Z</time>
      </trkpt>
      <trkpt lat="48.70322" lon="1.75335">
        <ele>180.19999694824</ele>
        <time>2014-06-03T13:35:33.000Z</time>
      </trkpt>
      <trkpt lat="48.70329" lon="1.7534">
        <ele>180.39999389648</ele>
        <time>2014-06-03T13:35:54.000Z</time>
      </trkpt>
      <trkpt lat="48.7033" lon="1.75341">
        <ele>180.39999389648</ele>
        <time>2014-06-03T13:35:55.000Z</time>
      </trkpt>
      <trkpt lat="48.70335" lon="1.75346">
        <ele>180.60000610352</ele>
        <time>2014-06-03T13:36:04.000Z</time>
      </trkpt>
      <trkpt lat="48.70336" lon="1.75346">
        <ele>180.60000610352</ele>
        <time>2014-06-03T13:36:10.000Z</time>
      </trkpt>
      <trkpt lat="48.70336" lon="1.75345">
        <ele>180.60000610352</ele>
        <time>2014-06-03T13:36:12.000Z</time>
      </trkpt>
      <trkpt lat="48.70335" lon="1.75344">
        <ele>180.60000610352</ele>
        <time>2014-06-03T13:36:15.000Z</time>
      </trkpt>
      <trkpt lat="48.70335" lon="1.75343">
        <ele>180.60000610352</ele>
        <time>2014-06-03T13:36:16.000Z</time>
      </trkpt>
      <trkpt lat="48.70325" lon="1.75334">
        <ele>180.39999389648</ele>
        <time>2014-06-03T13:36:21.000Z</time>
      </trkpt>
      <trkpt lat="48.70322" lon="1.7533">
        <ele>180.19999694824</ele>
        <time>2014-06-03T13:36:29.000Z</time>
      </trkpt>
      <trkpt lat="48.70322" lon="1.75331">
        <ele>180.19999694824</ele>
        <time>2014-06-03T13:36:30.000Z</time>
      </trkpt>
      <trkpt lat="48.70324" lon="1.75328">
        <ele>180.19999694824</ele>
        <time>2014-06-03T13:36:47.000Z</time>
      </trkpt>
      <trkpt lat="48.7032" lon="1.75322">
        <ele>180.19999694824</ele>
        <time>2014-06-03T13:36:51.000Z</time>
      </trkpt>
      <trkpt lat="48.70315" lon="1.75316">
        <ele>180.19999694824</ele>
        <time>2014-06-03T13:36:59.000Z</time>
      </trkpt>
      <trkpt lat="48.70314" lon="1.75316">
        <ele>180.19999694824</ele>
        <time>2014-06-03T13:37:03.000Z</time>
      </trkpt>
      <trkpt lat="48.70316" lon="1.75316">
        <ele>180.19999694824</ele>
        <time>2014-06-03T13:37:36.000Z</time>
      </trkpt>
      <trkpt lat="48.70313" lon="1.75313">
        <ele>180.19999694824</ele>
        <time>2014-06-03T13:37:45.000Z</time>
      </trkpt>
      <trkpt lat="48.70314" lon="1.75305">
        <ele>180.19999694824</ele>
        <time>2014-06-03T13:37:55.000Z</time>
      </trkpt>
      <trkpt lat="48.70306" lon="1.75297">
        <ele>180.19999694824</ele>
        <time>2014-06-03T13:38:01.000Z</time>
      </trkpt>
      <trkpt lat="48.70292" lon="1.75292">
        <ele>179.80000305176</ele>
        <time>2014-06-03T13:38:08.000Z</time>
      </trkpt>
      <trkpt lat="48.70283" lon="1.75284">
        <ele>179.80000305176</ele>
        <time>2014-06-03T13:38:16.000Z</time>
      </trkpt>
      <trkpt lat="48.70273" lon="1.75277">
        <ele>179.60000610352</ele>
        <time>2014-06-03T13:38:24.000Z</time>
      </trkpt>
      <trkpt lat="48.70266" lon="1.75271">
        <ele>179.39999389648</ele>
        <time>2014-06-03T13:38:31.000Z</time>
      </trkpt>
      <trkpt lat="48.70256" lon="1.75262">
        <ele>179</ele>
        <time>2014-06-03T13:38:38.000Z</time>
      </trkpt>
      <trkpt lat="48.70247" lon="1.75254">
        <ele>178.60000610352</ele>
        <time>2014-06-03T13:38:45.000Z</time>
      </trkpt>
      <trkpt lat="48.70241" lon="1.75251">
        <ele>178.39999389648</ele>
        <time>2014-06-03T13:38:50.000Z</time>
      </trkpt>
      <trkpt lat="48.70232" lon="1.75247">
        <ele>178</ele>
        <time>2014-06-03T13:38:56.000Z</time>
      </trkpt>
      <trkpt lat="48.70223" lon="1.75243">
        <ele>177.60000610352</ele>
        <time>2014-06-03T13:39:03.000Z</time>
      </trkpt>
      <trkpt lat="48.70213" lon="1.75247">
        <ele>177.19999694824</ele>
        <time>2014-06-03T13:39:10.000Z</time>
      </trkpt>
      <trkpt lat="48.70201" lon="1.75253">
        <ele>176.60000610352</ele>
        <time>2014-06-03T13:39:17.000Z</time>
      </trkpt>
      <trkpt lat="48.70188" lon="1.75256">
        <ele>176</ele>
        <time>2014-06-03T13:39:25.000Z</time>
      </trkpt>
      <trkpt lat="48.70174" lon="1.75261">
        <ele>175.80000305176</ele>
        <time>2014-06-03T13:39:34.000Z</time>
      </trkpt>
      <trkpt lat="48.70171" lon="1.75262">
        <ele>175.80000305176</ele>
        <time>2014-06-03T13:39:37.000Z</time>
      </trkpt>
      <trkpt lat="48.70163" lon="1.75269">
        <ele>175.80000305176</ele>
        <time>2014-06-03T13:39:43.000Z</time>
      </trkpt>
      <trkpt lat="48.7016" lon="1.75275">
        <ele>175.60000610352</ele>
        <time>2014-06-03T13:39:48.000Z</time>
      </trkpt>
      <trkpt lat="48.70155" lon="1.75275">
        <ele>175.60000610352</ele>
        <time>2014-06-03T13:39:56.000Z</time>
      </trkpt>
      <trkpt lat="48.70143" lon="1.75274">
        <ele>175.39999389648</ele>
        <time>2014-06-03T13:40:18.000Z</time>
      </trkpt>
      <trkpt lat="48.70134" lon="1.75281">
        <ele>175</ele>
        <time>2014-06-03T13:40:24.000Z</time>
      </trkpt>
      <trkpt lat="48.70122" lon="1.75285">
        <ele>174.60000610352</ele>
        <time>2014-06-03T13:40:32.000Z</time>
      </trkpt>
      <trkpt lat="48.70114" lon="1.7529">
        <ele>174</ele>
        <time>2014-06-03T13:40:39.000Z</time>
      </trkpt>
      <trkpt lat="48.70108" lon="1.75291">
        <ele>173.80000305176</ele>
        <time>2014-06-03T13:40:43.000Z</time>
      </trkpt>
      <trkpt lat="48.70105" lon="1.75293">
        <ele>173.80000305176</ele>
        <time>2014-06-03T13:40:47.000Z</time>
      </trkpt>
      <trkpt lat="48.70095" lon="1.753">
        <ele>173.39999389648</ele>
        <time>2014-06-03T13:40:54.000Z</time>
      </trkpt>
      <trkpt lat="48.70088" lon="1.75301">
        <ele>173.19999694824</ele>
        <time>2014-06-03T13:41:00.000Z</time>
      </trkpt>
      <trkpt lat="48.70081" lon="1.75305">
        <ele>173.19999694824</ele>
        <time>2014-06-03T13:41:05.000Z</time>
      </trkpt>
      <trkpt lat="48.70077" lon="1.75307">
        <ele>173</ele>
        <time>2014-06-03T13:41:08.000Z</time>
      </trkpt>
      <trkpt lat="48.70069" lon="1.75311">
        <ele>172.80000305176</ele>
        <time>2014-06-03T13:41:15.000Z</time>
      </trkpt>
      <trkpt lat="48.70063" lon="1.75314">
        <ele>172.60000610352</ele>
        <time>2014-06-03T13:41:20.000Z</time>
      </trkpt>
      <trkpt lat="48.70054" lon="1.75317">
        <ele>172.39999389648</ele>
        <time>2014-06-03T13:41:27.000Z</time>
      </trkpt>
      <trkpt lat="48.70043" lon="1.75323">
        <ele>172.19999694824</ele>
        <time>2014-06-03T13:41:34.000Z</time>
      </trkpt>
      <trkpt lat="48.70034" lon="1.75326">
        <ele>171.80000305176</ele>
        <time>2014-06-03T13:41:42.000Z</time>
      </trkpt>
      <trkpt lat="48.70025" lon="1.75331">
        <ele>171.39999389648</ele>
        <time>2014-06-03T13:41:49.000Z</time>
      </trkpt>
      <trkpt lat="48.70012" lon="1.75338">
        <ele>171.19999694824</ele>
        <time>2014-06-03T13:41:58.000Z</time>
      </trkpt>
      <trkpt lat="48.70001" lon="1.75344">
        <ele>171.19999694824</ele>
        <time>2014-06-03T13:42:07.000Z</time>
      </trkpt>
      <trkpt lat="48.69993" lon="1.75347">
        <ele>171</ele>
        <time>2014-06-03T13:42:13.000Z</time>
      </trkpt>
      <trkpt lat="48.69982" lon="1.75351">
        <ele>171</ele>
        <time>2014-06-03T13:42:22.000Z</time>
      </trkpt>
      <trkpt lat="48.69972" lon="1.75356">
        <ele>170.80000305176</ele>
        <time>2014-06-03T13:42:30.000Z</time>
      </trkpt>
      <trkpt lat="48.69961" lon="1.75362">
        <ele>171.39999389648</ele>
        <time>2014-06-03T13:42:38.000Z</time>
      </trkpt>
      <trkpt lat="48.69954" lon="1.75366">
        <ele>171.60000610352</ele>
        <time>2014-06-03T13:42:44.000Z</time>
      </trkpt>
      <trkpt lat="48.69946" lon="1.75369">
        <ele>172</ele>
        <time>2014-06-03T13:42:50.000Z</time>
      </trkpt>
      <trkpt lat="48.69936" lon="1.75375">
        <ele>172.39999389648</ele>
        <time>2014-06-03T13:42:57.000Z</time>
      </trkpt>
      <trkpt lat="48.69925" lon="1.75379">
        <ele>172.19999694824</ele>
        <time>2014-06-03T13:43:05.000Z</time>
      </trkpt>
      <trkpt lat="48.69909" lon="1.75386">
        <ele>171.80000305176</ele>
        <time>2014-06-03T13:43:16.000Z</time>
      </trkpt>
      <trkpt lat="48.69896" lon="1.75395">
        <ele>171.19999694824</ele>
        <time>2014-06-03T13:43:25.000Z</time>
      </trkpt>
      <trkpt lat="48.69882" lon="1.75399">
        <ele>170.80000305176</ele>
        <time>2014-06-03T13:43:34.000Z</time>
      </trkpt>
      <trkpt lat="48.69881" lon="1.754">
        <ele>170.80000305176</ele>
        <time>2014-06-03T13:43:35.000Z</time>
      </trkpt>
      <trkpt lat="48.69875" lon="1.75401">
        <ele>170.60000610352</ele>
        <time>2014-06-03T13:43:39.000Z</time>
      </trkpt>
      <trkpt lat="48.69864" lon="1.75408">
        <ele>170.19999694824</ele>
        <time>2014-06-03T13:43:48.000Z</time>
      </trkpt>
      <trkpt lat="48.69856" lon="1.75411">
        <ele>169.80000305176</ele>
        <time>2014-06-03T13:43:54.000Z</time>
      </trkpt>
      <trkpt lat="48.69851" lon="1.75412">
        <ele>169.60000610352</ele>
        <time>2014-06-03T13:43:58.000Z</time>
      </trkpt>
      <trkpt lat="48.69843" lon="1.75418">
        <ele>169.19999694824</ele>
        <time>2014-06-03T13:44:06.000Z</time>
      </trkpt>
      <trkpt lat="48.69837" lon="1.7542">
        <ele>168.80000305176</ele>
        <time>2014-06-03T13:44:11.000Z</time>
      </trkpt>
      <trkpt lat="48.69827" lon="1.75424">
        <ele>168.39999389648</ele>
        <time>2014-06-03T13:44:19.000Z</time>
      </trkpt>
      <trkpt lat="48.69824" lon="1.75425">
        <ele>168.19999694824</ele>
        <time>2014-06-03T13:44:24.000Z</time>
      </trkpt>
      <trkpt lat="48.69817" lon="1.75428">
        <ele>167.80000305176</ele>
        <time>2014-06-03T13:44:32.000Z</time>
      </trkpt>
      <trkpt lat="48.69814" lon="1.75428">
        <ele>167.80000305176</ele>
        <time>2014-06-03T13:44:33.000Z</time>
      </trkpt>
      <trkpt lat="48.69808" lon="1.75433">
        <ele>167.39999389648</ele>
        <time>2014-06-03T13:44:38.000Z</time>
      </trkpt>
      <trkpt lat="48.698" lon="1.75442">
        <ele>166.60000610352</ele>
        <time>2014-06-03T13:44:47.000Z</time>
      </trkpt>
      <trkpt lat="48.69791" lon="1.75448">
        <ele>166</ele>
        <time>2014-06-03T13:44:54.000Z</time>
      </trkpt>
      <trkpt lat="48.69783" lon="1.75452">
        <ele>165.19999694824</ele>
        <time>2014-06-03T13:45:01.000Z</time>
      </trkpt>
      <trkpt lat="48.69771" lon="1.75456">
        <ele>164.60000610352</ele>
        <time>2014-06-03T13:45:08.000Z</time>
      </trkpt>
      <trkpt lat="48.6976" lon="1.75458">
        <ele>164</ele>
        <time>2014-06-03T13:45:15.000Z</time>
      </trkpt>
      <trkpt lat="48.69748" lon="1.75463">
        <ele>163.19999694824</ele>
        <time>2014-06-03T13:45:24.000Z</time>
      </trkpt>
      <trkpt lat="48.69744" lon="1.75465">
        <ele>162.80000305176</ele>
        <time>2014-06-03T13:45:27.000Z</time>
      </trkpt>
      <trkpt lat="48.69737" lon="1.7547">
        <ele>162.19999694824</ele>
        <time>2014-06-03T13:45:33.000Z</time>
      </trkpt>
      <trkpt lat="48.69722" lon="1.75478">
        <ele>161.19999694824</ele>
        <time>2014-06-03T13:45:43.000Z</time>
      </trkpt>
      <trkpt lat="48.69711" lon="1.75483">
        <ele>160.39999389648</ele>
        <time>2014-06-03T13:45:51.000Z</time>
      </trkpt>
      <trkpt lat="48.697" lon="1.75488">
        <ele>159.60000610352</ele>
        <time>2014-06-03T13:45:59.000Z</time>
      </trkpt>
      <trkpt lat="48.69689" lon="1.75493">
        <ele>159</ele>
        <time>2014-06-03T13:46:07.000Z</time>
      </trkpt>
      <trkpt lat="48.69677" lon="1.75499">
        <ele>158.39999389648</ele>
        <time>2014-06-03T13:46:16.000Z</time>
      </trkpt>
      <trkpt lat="48.69665" lon="1.75504">
        <ele>157.80000305176</ele>
        <time>2014-06-03T13:46:24.000Z</time>
      </trkpt>
      <trkpt lat="48.69658" lon="1.75506">
        <ele>157.60000610352</ele>
        <time>2014-06-03T13:46:29.000Z</time>
      </trkpt>
      <trkpt lat="48.6965" lon="1.7551">
        <ele>157.19999694824</ele>
        <time>2014-06-03T13:46:35.000Z</time>
      </trkpt>
      <trkpt lat="48.69641" lon="1.75514">
        <ele>156.60000610352</ele>
        <time>2014-06-03T13:46:42.000Z</time>
      </trkpt>
      <trkpt lat="48.69628" lon="1.7552">
        <ele>156.19999694824</ele>
        <time>2014-06-03T13:46:51.000Z</time>
      </trkpt>
      <trkpt lat="48.69616" lon="1.75526">
        <ele>156.19999694824</ele>
        <time>2014-06-03T13:47:00.000Z</time>
      </trkpt>
      <trkpt lat="48.69603" lon="1.75531">
        <ele>156</ele>
        <time>2014-06-03T13:47:09.000Z</time>
      </trkpt>
      <trkpt lat="48.69596" lon="1.75535">
        <ele>155.80000305176</ele>
        <time>2014-06-03T13:47:15.000Z</time>
      </trkpt>
      <trkpt lat="48.69588" lon="1.75539">
        <ele>155.60000610352</ele>
        <time>2014-06-03T13:47:21.000Z</time>
      </trkpt>
      <trkpt lat="48.69582" lon="1.75542">
        <ele>155.39999389648</ele>
        <time>2014-06-03T13:47:26.000Z</time>
      </trkpt>
      <trkpt lat="48.6957" lon="1.75546">
        <ele>155.39999389648</ele>
        <time>2014-06-03T13:47:34.000Z</time>
      </trkpt>
      <trkpt lat="48.69563" lon="1.75538">
        <ele>155.19999694824</ele>
        <time>2014-06-03T13:47:40.000Z</time>
      </trkpt>
      <trkpt lat="48.69559" lon="1.75518">
        <ele>155</ele>
        <time>2014-06-03T13:47:48.000Z</time>
      </trkpt>
      <trkpt lat="48.69556" lon="1.75498">
        <ele>154.80000305176</ele>
        <time>2014-06-03T13:47:55.000Z</time>
      </trkpt>
      <trkpt lat="48.69548" lon="1.75472">
        <ele>154.60000610352</ele>
        <time>2014-06-03T13:48:01.000Z</time>
      </trkpt>
      <trkpt lat="48.69534" lon="1.7543">
        <ele>154.39999389648</ele>
        <time>2014-06-03T13:48:09.000Z</time>
      </trkpt>
      <trkpt lat="48.69527" lon="1.7541">
        <ele>154.19999694824</ele>
        <time>2014-06-03T13:48:14.000Z</time>
      </trkpt>
      <trkpt lat="48.69522" lon="1.75392">
        <ele>154.60000610352</ele>
        <time>2014-06-03T13:48:18.000Z</time>
      </trkpt>
      <trkpt lat="48.69514" lon="1.75366">
        <ele>155.19999694824</ele>
        <time>2014-06-03T13:48:23.000Z</time>
      </trkpt>
      <trkpt lat="48.69507" lon="1.75336">
        <ele>156.19999694824</ele>
        <time>2014-06-03T13:48:29.000Z</time>
      </trkpt>
      <trkpt lat="48.69494" lon="1.75293">
        <ele>158</ele>
        <time>2014-06-03T13:48:37.000Z</time>
      </trkpt>
      <trkpt lat="48.69483" lon="1.75258">
        <ele>159.60000610352</ele>
        <time>2014-06-03T13:48:44.000Z</time>
      </trkpt>
      <trkpt lat="48.69474" lon="1.75228">
        <ele>161</ele>
        <time>2014-06-03T13:48:50.000Z</time>
      </trkpt>
      <trkpt lat="48.69467" lon="1.75199">
        <ele>162.80000305176</ele>
        <time>2014-06-03T13:48:55.000Z</time>
      </trkpt>
      <trkpt lat="48.69457" lon="1.75156">
        <ele>164.60000610352</ele>
        <time>2014-06-03T13:49:03.000Z</time>
      </trkpt>
      <trkpt lat="48.69452" lon="1.75128">
        <ele>165.80000305176</ele>
        <time>2014-06-03T13:49:08.000Z</time>
      </trkpt>
      <trkpt lat="48.69446" lon="1.75101">
        <ele>166.80000305176</ele>
        <time>2014-06-03T13:49:13.000Z</time>
      </trkpt>
      <trkpt lat="48.69441" lon="1.75078">
        <ele>167.60000610352</ele>
        <time>2014-06-03T13:49:17.000Z</time>
      </trkpt>
      <trkpt lat="48.69435" lon="1.75051">
        <ele>168</ele>
        <time>2014-06-03T13:49:23.000Z</time>
      </trkpt>
      <trkpt lat="48.69428" lon="1.75027">
        <ele>167.80000305176</ele>
        <time>2014-06-03T13:49:29.000Z</time>
      </trkpt>
      <trkpt lat="48.6942" lon="1.75009">
        <ele>167.39999389648</ele>
        <time>2014-06-03T13:49:35.000Z</time>
      </trkpt>
      <trkpt lat="48.69413" lon="1.74989">
        <ele>167.19999694824</ele>
        <time>2014-06-03T13:49:44.000Z</time>
      </trkpt>
      <trkpt lat="48.69408" lon="1.74973">
        <ele>166.19999694824</ele>
        <time>2014-06-03T13:49:52.000Z</time>
      </trkpt>
      <trkpt lat="48.69409" lon="1.74968">
        <ele>166</ele>
        <time>2014-06-03T13:49:54.000Z</time>
      </trkpt>
      <trkpt lat="48.69404" lon="1.74947">
        <ele>165</ele>
        <time>2014-06-03T13:50:04.000Z</time>
      </trkpt>
      <trkpt lat="48.694" lon="1.74935">
        <ele>164.39999389648</ele>
        <time>2014-06-03T13:50:10.000Z</time>
      </trkpt>
      <trkpt lat="48.69401" lon="1.74925">
        <ele>164</ele>
        <time>2014-06-03T13:50:14.000Z</time>
      </trkpt>
      <trkpt lat="48.69401" lon="1.74915">
        <ele>163.60000610352</ele>
        <time>2014-06-03T13:50:19.000Z</time>
      </trkpt>
      <trkpt lat="48.69397" lon="1.74899">
        <ele>163.19999694824</ele>
        <time>2014-06-03T13:50:27.000Z</time>
      </trkpt>
      <trkpt lat="48.69392" lon="1.74882">
        <ele>163.19999694824</ele>
        <time>2014-06-03T13:50:35.000Z</time>
      </trkpt>
      <trkpt lat="48.69385" lon="1.74864">
        <ele>163</ele>
        <time>2014-06-03T13:50:42.000Z</time>
      </trkpt>
      <trkpt lat="48.69376" lon="1.74849">
        <ele>162.80000305176</ele>
        <time>2014-06-03T13:50:46.000Z</time>
      </trkpt>
      <trkpt lat="48.6937" lon="1.74829">
        <ele>162.19999694824</ele>
        <time>2014-06-03T13:50:51.000Z</time>
      </trkpt>
      <trkpt lat="48.69365" lon="1.74809">
        <ele>162.60000610352</ele>
        <time>2014-06-03T13:51:00.000Z</time>
      </trkpt>
      <trkpt lat="48.69365" lon="1.74791">
        <ele>163.80000305176</ele>
        <time>2014-06-03T13:51:09.000Z</time>
      </trkpt>
      <trkpt lat="48.69363" lon="1.74778">
        <ele>164.60000610352</ele>
        <time>2014-06-03T13:51:16.000Z</time>
      </trkpt>
      <trkpt lat="48.69362" lon="1.74765">
        <ele>165.39999389648</ele>
        <time>2014-06-03T13:51:23.000Z</time>
      </trkpt>
      <trkpt lat="48.69362" lon="1.74757">
        <ele>165.80000305176</ele>
        <time>2014-06-03T13:51:27.000Z</time>
      </trkpt>
      <trkpt lat="48.69358" lon="1.74741">
        <ele>166.80000305176</ele>
        <time>2014-06-03T13:51:35.000Z</time>
      </trkpt>
      <trkpt lat="48.69354" lon="1.74726">
        <ele>167</ele>
        <time>2014-06-03T13:51:43.000Z</time>
      </trkpt>
      <trkpt lat="48.69351" lon="1.74711">
        <ele>167</ele>
        <time>2014-06-03T13:51:51.000Z</time>
      </trkpt>
      <trkpt lat="48.69345" lon="1.74692">
        <ele>167</ele>
        <time>2014-06-03T13:52:01.000Z</time>
      </trkpt>
      <trkpt lat="48.69341" lon="1.74675">
        <ele>167.19999694824</ele>
        <time>2014-06-03T13:52:09.000Z</time>
      </trkpt>
      <trkpt lat="48.6934" lon="1.74669">
        <ele>167.19999694824</ele>
        <time>2014-06-03T13:52:12.000Z</time>
      </trkpt>
      <trkpt lat="48.69335" lon="1.74661">
        <ele>167.19999694824</ele>
        <time>2014-06-03T13:52:16.000Z</time>
      </trkpt>
      <trkpt lat="48.69329" lon="1.74645">
        <ele>167.39999389648</ele>
        <time>2014-06-03T13:52:23.000Z</time>
      </trkpt>
      <trkpt lat="48.69323" lon="1.74628">
        <ele>167.60000610352</ele>
        <time>2014-06-03T13:52:30.000Z</time>
      </trkpt>
      <trkpt lat="48.6932" lon="1.74607">
        <ele>168</ele>
        <time>2014-06-03T13:52:40.000Z</time>
      </trkpt>
      <trkpt lat="48.69313" lon="1.7459">
        <ele>168.19999694824</ele>
        <time>2014-06-03T13:52:49.000Z</time>
      </trkpt>
      <trkpt lat="48.69309" lon="1.74575">
        <ele>168.39999389648</ele>
        <time>2014-06-03T13:52:56.000Z</time>
      </trkpt>
      <trkpt lat="48.69309" lon="1.74569">
        <ele>168.60000610352</ele>
        <time>2014-06-03T13:52:59.000Z</time>
      </trkpt>
      <trkpt lat="48.69296" lon="1.74558">
        <ele>168.60000610352</ele>
        <time>2014-06-03T13:53:08.000Z</time>
      </trkpt>
      <trkpt lat="48.69287" lon="1.74549">
        <ele>168.80000305176</ele>
        <time>2014-06-03T13:53:15.000Z</time>
      </trkpt>
      <trkpt lat="48.69279" lon="1.74538">
        <ele>168.80000305176</ele>
        <time>2014-06-03T13:53:22.000Z</time>
      </trkpt>
      <trkpt lat="48.69269" lon="1.74532">
        <ele>169</ele>
        <time>2014-06-03T13:53:28.000Z</time>
      </trkpt>
      <trkpt lat="48.69259" lon="1.7452">
        <ele>168.60000610352</ele>
        <time>2014-06-03T13:53:37.000Z</time>
      </trkpt>
      <trkpt lat="48.6925" lon="1.74511">
        <ele>168.19999694824</ele>
        <time>2014-06-03T13:53:45.000Z</time>
      </trkpt>
      <trkpt lat="48.6924" lon="1.74504">
        <ele>168</ele>
        <time>2014-06-03T13:53:52.000Z</time>
      </trkpt>
      <trkpt lat="48.69232" lon="1.74496">
        <ele>167.60000610352</ele>
        <time>2014-06-03T13:53:58.000Z</time>
      </trkpt>
      <trkpt lat="48.69221" lon="1.74484">
        <ele>167.19999694824</ele>
        <time>2014-06-03T13:54:07.000Z</time>
      </trkpt>
      <trkpt lat="48.6921" lon="1.74472">
        <ele>166.19999694824</ele>
        <time>2014-06-03T13:54:15.000Z</time>
      </trkpt>
      <trkpt lat="48.69198" lon="1.74458">
        <ele>165.39999389648</ele>
        <time>2014-06-03T13:54:24.000Z</time>
      </trkpt>
      <trkpt lat="48.6919" lon="1.74447">
        <ele>164.60000610352</ele>
        <time>2014-06-03T13:54:31.000Z</time>
      </trkpt>
      <trkpt lat="48.69175" lon="1.74434">
        <ele>163.80000305176</ele>
        <time>2014-06-03T13:54:42.000Z</time>
      </trkpt>
      <trkpt lat="48.69165" lon="1.74423">
        <ele>163.19999694824</ele>
        <time>2014-06-03T13:54:49.000Z</time>
      </trkpt>
      <trkpt lat="48.69156" lon="1.74416">
        <ele>162.60000610352</ele>
        <time>2014-06-03T13:54:55.000Z</time>
      </trkpt>
      <trkpt lat="48.69147" lon="1.74406">
        <ele>162.19999694824</ele>
        <time>2014-06-03T13:55:02.000Z</time>
      </trkpt>
      <trkpt lat="48.69135" lon="1.74402">
        <ele>161.80000305176</ele>
        <time>2014-06-03T13:55:09.000Z</time>
      </trkpt>
      <trkpt lat="48.69126" lon="1.7441">
        <ele>161.80000305176</ele>
        <time>2014-06-03T13:55:15.000Z</time>
      </trkpt>
      <trkpt lat="48.69117" lon="1.74426">
        <ele>162</ele>
        <time>2014-06-03T13:55:23.000Z</time>
      </trkpt>
      <trkpt lat="48.6911" lon="1.74439">
        <ele>162</ele>
        <time>2014-06-03T13:55:29.000Z</time>
      </trkpt>
      <trkpt lat="48.69102" lon="1.74452">
        <ele>162.19999694824</ele>
        <time>2014-06-03T13:55:35.000Z</time>
      </trkpt>
      <trkpt lat="48.69095" lon="1.74466">
        <ele>162.39999389648</ele>
        <time>2014-06-03T13:55:42.000Z</time>
      </trkpt>
      <trkpt lat="48.69087" lon="1.7448">
        <ele>162.39999389648</ele>
        <time>2014-06-03T13:55:50.000Z</time>
      </trkpt>
      <trkpt lat="48.69081" lon="1.74495">
        <ele>162.19999694824</ele>
        <time>2014-06-03T13:55:58.000Z</time>
      </trkpt>
      <trkpt lat="48.69074" lon="1.74509">
        <ele>162</ele>
        <time>2014-06-03T13:56:07.000Z</time>
      </trkpt>
      <trkpt lat="48.69068" lon="1.74525">
        <ele>161.80000305176</ele>
        <time>2014-06-03T13:56:15.000Z</time>
      </trkpt>
      <trkpt lat="48.69062" lon="1.74538">
        <ele>161.60000610352</ele>
        <time>2014-06-03T13:56:21.000Z</time>
      </trkpt>
      <trkpt lat="48.69056" lon="1.74547">
        <ele>161.19999694824</ele>
        <time>2014-06-03T13:56:26.000Z</time>
      </trkpt>
      <trkpt lat="48.69046" lon="1.74565">
        <ele>161</ele>
        <time>2014-06-03T13:56:35.000Z</time>
      </trkpt>
      <trkpt lat="48.69039" lon="1.74579">
        <ele>160.80000305176</ele>
        <time>2014-06-03T13:56:42.000Z</time>
      </trkpt>
      <trkpt lat="48.6903" lon="1.74597">
        <ele>160.19999694824</ele>
        <time>2014-06-03T13:56:51.000Z</time>
      </trkpt>
      <trkpt lat="48.69022" lon="1.74615">
        <ele>159.60000610352</ele>
        <time>2014-06-03T13:56:59.000Z</time>
      </trkpt>
      <trkpt lat="48.69013" lon="1.74635">
        <ele>159</ele>
        <time>2014-06-03T13:57:08.000Z</time>
      </trkpt>
      <trkpt lat="48.69004" lon="1.74653">
        <ele>159.39999389648</ele>
        <time>2014-06-03T13:57:16.000Z</time>
      </trkpt>
      <trkpt lat="48.68995" lon="1.74669">
        <ele>159.39999389648</ele>
        <time>2014-06-03T13:57:24.000Z</time>
      </trkpt>
      <trkpt lat="48.68987" lon="1.74685">
        <ele>159.39999389648</ele>
        <time>2014-06-03T13:57:32.000Z</time>
      </trkpt>
      <trkpt lat="48.68977" lon="1.74706">
        <ele>159.60000610352</ele>
        <time>2014-06-03T13:57:42.000Z</time>
      </trkpt>
      <trkpt lat="48.68968" lon="1.74721">
        <ele>160.19999694824</ele>
        <time>2014-06-03T13:57:50.000Z</time>
      </trkpt>
      <trkpt lat="48.68963" lon="1.74733">
        <ele>160.60000610352</ele>
        <time>2014-06-03T13:57:56.000Z</time>
      </trkpt>
      <trkpt lat="48.68962" lon="1.74734">
        <ele>160.80000305176</ele>
        <time>2014-06-03T13:57:59.000Z</time>
      </trkpt>
      <trkpt lat="48.68961" lon="1.74734">
        <ele>160.80000305176</ele>
        <time>2014-06-03T13:58:36.000Z</time>
      </trkpt>
      <trkpt lat="48.68955" lon="1.74748">
        <ele>161</ele>
        <time>2014-06-03T13:58:42.000Z</time>
      </trkpt>
      <trkpt lat="48.68947" lon="1.74766">
        <ele>160.80000305176</ele>
        <time>2014-06-03T13:58:51.000Z</time>
      </trkpt>
      <trkpt lat="48.68939" lon="1.74782">
        <ele>160.39999389648</ele>
        <time>2014-06-03T13:59:00.000Z</time>
      </trkpt>
      <trkpt lat="48.68933" lon="1.74794">
        <ele>159.60000610352</ele>
        <time>2014-06-03T13:59:07.000Z</time>
      </trkpt>
      <trkpt lat="48.68925" lon="1.74809">
        <ele>158.60000610352</ele>
        <time>2014-06-03T13:59:15.000Z</time>
      </trkpt>
      <trkpt lat="48.68918" lon="1.74823">
        <ele>158.19999694824</ele>
        <time>2014-06-03T13:59:23.000Z</time>
      </trkpt>
      <trkpt lat="48.68916" lon="1.74833">
        <ele>158</ele>
        <time>2014-06-03T13:59:28.000Z</time>
      </trkpt>
      <trkpt lat="48.68909" lon="1.7484">
        <ele>157.60000610352</ele>
        <time>2014-06-03T13:59:34.000Z</time>
      </trkpt>
      <trkpt lat="48.68907" lon="1.74845">
        <ele>157.39999389648</ele>
        <time>2014-06-03T13:59:36.000Z</time>
      </trkpt>
      <trkpt lat="48.689" lon="1.74859">
        <ele>156.80000305176</ele>
        <time>2014-06-03T13:59:43.000Z</time>
      </trkpt>
      <trkpt lat="48.68889" lon="1.74879">
        <ele>156.39999389648</ele>
        <time>2014-06-03T13:59:53.000Z</time>
      </trkpt>
      <trkpt lat="48.68884" lon="1.74885">
        <ele>156.39999389648</ele>
        <time>2014-06-03T13:59:57.000Z</time>
      </trkpt>
      <trkpt lat="48.68878" lon="1.74882">
        <ele>156.39999389648</ele>
        <time>2014-06-03T14:00:02.000Z</time>
      </trkpt>
      <trkpt lat="48.68875" lon="1.74863">
        <ele>156.19999694824</ele>
        <time>2014-06-03T14:00:10.000Z</time>
      </trkpt>
      <trkpt lat="48.68874" lon="1.74845">
        <ele>156.19999694824</ele>
        <time>2014-06-03T14:00:17.000Z</time>
      </trkpt>
      <trkpt lat="48.6887" lon="1.74831">
        <ele>156.39999389648</ele>
        <time>2014-06-03T14:00:23.000Z</time>
      </trkpt>
      <trkpt lat="48.68867" lon="1.74819">
        <ele>156.39999389648</ele>
        <time>2014-06-03T14:00:28.000Z</time>
      </trkpt>
      <trkpt lat="48.68865" lon="1.74809">
        <ele>156.39999389648</ele>
        <time>2014-06-03T14:00:35.000Z</time>
      </trkpt>
      <trkpt lat="48.68863" lon="1.74799">
        <ele>156.39999389648</ele>
        <time>2014-06-03T14:00:40.000Z</time>
      </trkpt>
      <trkpt lat="48.68861" lon="1.74783">
        <ele>156.19999694824</ele>
        <time>2014-06-03T14:00:49.000Z</time>
      </trkpt>
      <trkpt lat="48.68858" lon="1.74765">
        <ele>156.19999694824</ele>
        <time>2014-06-03T14:00:58.000Z</time>
      </trkpt>
      <trkpt lat="48.68856" lon="1.74743">
        <ele>156</ele>
        <time>2014-06-03T14:01:08.000Z</time>
      </trkpt>
      <trkpt lat="48.68852" lon="1.74724">
        <ele>156.19999694824</ele>
        <time>2014-06-03T14:01:17.000Z</time>
      </trkpt>
      <trkpt lat="48.68852" lon="1.74714">
        <ele>156.39999389648</ele>
        <time>2014-06-03T14:01:23.000Z</time>
      </trkpt>
      <trkpt lat="48.68852" lon="1.74699">
        <ele>156.60000610352</ele>
        <time>2014-06-03T14:01:30.000Z</time>
      </trkpt>
      <trkpt lat="48.68849" lon="1.74684">
        <ele>157.19999694824</ele>
        <time>2014-06-03T14:01:39.000Z</time>
      </trkpt>
      <trkpt lat="48.68845" lon="1.74668">
        <ele>157.80000305176</ele>
        <time>2014-06-03T14:01:48.000Z</time>
      </trkpt>
      <trkpt lat="48.68845" lon="1.74653">
        <ele>158</ele>
        <time>2014-06-03T14:01:55.000Z</time>
      </trkpt>
      <trkpt lat="48.68844" lon="1.7464">
        <ele>158</ele>
        <time>2014-06-03T14:02:01.000Z</time>
      </trkpt>
      <trkpt lat="48.68844" lon="1.74638">
        <ele>158</ele>
        <time>2014-06-03T14:02:02.000Z</time>
      </trkpt>
      <trkpt lat="48.68843" lon="1.74629">
        <ele>158</ele>
        <time>2014-06-03T14:02:08.000Z</time>
      </trkpt>
      <trkpt lat="48.6884" lon="1.74617">
        <ele>158.19999694824</ele>
        <time>2014-06-03T14:02:15.000Z</time>
      </trkpt>
      <trkpt lat="48.6884" lon="1.74615">
        <ele>158.19999694824</ele>
        <time>2014-06-03T14:02:16.000Z</time>
      </trkpt>
      <trkpt lat="48.68838" lon="1.74607">
        <ele>158.39999389648</ele>
        <time>2014-06-03T14:02:21.000Z</time>
      </trkpt>
      <trkpt lat="48.68838" lon="1.74596">
        <ele>158.19999694824</ele>
        <time>2014-06-03T14:02:26.000Z</time>
      </trkpt>
      <trkpt lat="48.68838" lon="1.74583">
        <ele>158.19999694824</ele>
        <time>2014-06-03T14:02:32.000Z</time>
      </trkpt>
      <trkpt lat="48.68837" lon="1.74575">
        <ele>158.19999694824</ele>
        <time>2014-06-03T14:02:35.000Z</time>
      </trkpt>
      <trkpt lat="48.68835" lon="1.74558">
        <ele>158.60000610352</ele>
        <time>2014-06-03T14:02:43.000Z</time>
      </trkpt>
      <trkpt lat="48.68834" lon="1.74541">
        <ele>159</ele>
        <time>2014-06-03T14:02:51.000Z</time>
      </trkpt>
      <trkpt lat="48.68835" lon="1.74522">
        <ele>159</ele>
        <time>2014-06-03T14:03:00.000Z</time>
      </trkpt>
      <trkpt lat="48.68833" lon="1.74504">
        <ele>159</ele>
        <time>2014-06-03T14:03:08.000Z</time>
      </trkpt>
      <trkpt lat="48.68833" lon="1.74488">
        <ele>159.19999694824</ele>
        <time>2014-06-03T14:03:15.000Z</time>
      </trkpt>
      <trkpt lat="48.68834" lon="1.74483">
        <ele>159</ele>
        <time>2014-06-03T14:03:17.000Z</time>
      </trkpt>
      <trkpt lat="48.68835" lon="1.74469">
        <ele>159.19999694824</ele>
        <time>2014-06-03T14:03:23.000Z</time>
      </trkpt>
      <trkpt lat="48.68834" lon="1.7446">
        <ele>159.39999389648</ele>
        <time>2014-06-03T14:03:27.000Z</time>
      </trkpt>
      <trkpt lat="48.68837" lon="1.74448">
        <ele>159.39999389648</ele>
        <time>2014-06-03T14:03:33.000Z</time>
      </trkpt>
      <trkpt lat="48.68833" lon="1.74439">
        <ele>160</ele>
        <time>2014-06-03T14:03:37.000Z</time>
      </trkpt>
      <trkpt lat="48.68834" lon="1.74428">
        <ele>160.19999694824</ele>
        <time>2014-06-03T14:03:42.000Z</time>
      </trkpt>
      <trkpt lat="48.68837" lon="1.74417">
        <ele>160</ele>
        <time>2014-06-03T14:03:47.000Z</time>
      </trkpt>
      <trkpt lat="48.68834" lon="1.74395">
        <ele>160.39999389648</ele>
        <time>2014-06-03T14:03:57.000Z</time>
      </trkpt>
      <trkpt lat="48.68834" lon="1.74382">
        <ele>160</ele>
        <time>2014-06-03T14:04:03.000Z</time>
      </trkpt>
      <trkpt lat="48.68833" lon="1.74363">
        <ele>159.39999389648</ele>
        <time>2014-06-03T14:04:11.000Z</time>
      </trkpt>
      <trkpt lat="48.6883" lon="1.74341">
        <ele>159</ele>
        <time>2014-06-03T14:04:20.000Z</time>
      </trkpt>
      <trkpt lat="48.68829" lon="1.74317">
        <ele>158</ele>
        <time>2014-06-03T14:04:26.000Z</time>
      </trkpt>
      <trkpt lat="48.68828" lon="1.74292">
        <ele>155.60000610352</ele>
        <time>2014-06-03T14:04:31.000Z</time>
      </trkpt>
      <trkpt lat="48.68824" lon="1.74266">
        <ele>155.39999389648</ele>
        <time>2014-06-03T14:04:36.000Z</time>
      </trkpt>
      <trkpt lat="48.68813" lon="1.74247">
        <ele>155.60000610352</ele>
        <time>2014-06-03T14:04:41.000Z</time>
      </trkpt>
      <trkpt lat="48.68797" lon="1.74237">
        <ele>156</ele>
        <time>2014-06-03T14:04:46.000Z</time>
      </trkpt>
      <trkpt lat="48.68775" lon="1.74231">
        <ele>156.60000610352</ele>
        <time>2014-06-03T14:04:53.000Z</time>
      </trkpt>
      <trkpt lat="48.68754" lon="1.74235">
        <ele>157</ele>
        <time>2014-06-03T14:04:59.000Z</time>
      </trkpt>
      <trkpt lat="48.68733" lon="1.74236">
        <ele>157</ele>
        <time>2014-06-03T14:05:05.000Z</time>
      </trkpt>
      <trkpt lat="48.68706" lon="1.74237">
        <ele>157</ele>
        <time>2014-06-03T14:05:13.000Z</time>
      </trkpt>
      <trkpt lat="48.68695" lon="1.74238">
        <ele>157</ele>
        <time>2014-06-03T14:05:18.000Z</time>
      </trkpt>
      <trkpt lat="48.68683" lon="1.74239">
        <ele>157</ele>
        <time>2014-06-03T14:05:26.000Z</time>
      </trkpt>
      <trkpt lat="48.68672" lon="1.7424">
        <ele>157.19999694824</ele>
        <time>2014-06-03T14:05:34.000Z</time>
      </trkpt>
      <trkpt lat="48.68662" lon="1.74242">
        <ele>157.39999389648</ele>
        <time>2014-06-03T14:05:42.000Z</time>
      </trkpt>
      <trkpt lat="48.68652" lon="1.74246">
        <ele>157.60000610352</ele>
        <time>2014-06-03T14:05:48.000Z</time>
      </trkpt>
      <trkpt lat="48.68644" lon="1.74252">
        <ele>157.80000305176</ele>
        <time>2014-06-03T14:05:56.000Z</time>
      </trkpt>
      <trkpt lat="48.68627" lon="1.74262">
        <ele>158.19999694824</ele>
        <time>2014-06-03T14:06:06.000Z</time>
      </trkpt>
      <trkpt lat="48.68616" lon="1.74267">
        <ele>157.60000610352</ele>
        <time>2014-06-03T14:06:14.000Z</time>
      </trkpt>
      <trkpt lat="48.68606" lon="1.74275">
        <ele>156.80000305176</ele>
        <time>2014-06-03T14:06:22.000Z</time>
      </trkpt>
      <trkpt lat="48.68599" lon="1.74284">
        <ele>156.19999694824</ele>
        <time>2014-06-03T14:06:29.000Z</time>
      </trkpt>
      <trkpt lat="48.68592" lon="1.74293">
        <ele>155.80000305176</ele>
        <time>2014-06-03T14:06:36.000Z</time>
      </trkpt>
      <trkpt lat="48.68585" lon="1.74305">
        <ele>155.19999694824</ele>
        <time>2014-06-03T14:06:44.000Z</time>
      </trkpt>
      <trkpt lat="48.68584" lon="1.74307">
        <ele>155.19999694824</ele>
        <time>2014-06-03T14:06:48.000Z</time>
      </trkpt>
      <trkpt lat="48.68581" lon="1.74318">
        <ele>154.80000305176</ele>
        <time>2014-06-03T14:06:57.000Z</time>
      </trkpt>
      <trkpt lat="48.68577" lon="1.74336">
        <ele>154.80000305176</ele>
        <time>2014-06-03T14:07:04.000Z</time>
      </trkpt>
      <trkpt lat="48.68577" lon="1.74353">
        <ele>155</ele>
        <time>2014-06-03T14:07:11.000Z</time>
      </trkpt>
      <trkpt lat="48.68576" lon="1.74371">
        <ele>155.19999694824</ele>
        <time>2014-06-03T14:07:19.000Z</time>
      </trkpt>
      <trkpt lat="48.68572" lon="1.74396">
        <ele>154</ele>
        <time>2014-06-03T14:07:29.000Z</time>
      </trkpt>
      <trkpt lat="48.68566" lon="1.74416">
        <ele>153.80000305176</ele>
        <time>2014-06-03T14:07:39.000Z</time>
      </trkpt>
      <trkpt lat="48.68558" lon="1.7443">
        <ele>154</ele>
        <time>2014-06-03T14:07:49.000Z</time>
      </trkpt>
      <trkpt lat="48.6855" lon="1.7444">
        <ele>154.19999694824</ele>
        <time>2014-06-03T14:07:56.000Z</time>
      </trkpt>
      <trkpt lat="48.68541" lon="1.74448">
        <ele>154</ele>
        <time>2014-06-03T14:08:03.000Z</time>
      </trkpt>
      <trkpt lat="48.68532" lon="1.74456">
        <ele>153.80000305176</ele>
        <time>2014-06-03T14:08:11.000Z</time>
      </trkpt>
      <trkpt lat="48.68523" lon="1.74462">
        <ele>153.39999389648</ele>
        <time>2014-06-03T14:08:19.000Z</time>
      </trkpt>
      <trkpt lat="48.68511" lon="1.74468">
        <ele>154</ele>
        <time>2014-06-03T14:08:28.000Z</time>
      </trkpt>
      <trkpt lat="48.68499" lon="1.74473">
        <ele>154.39999389648</ele>
        <time>2014-06-03T14:08:36.000Z</time>
      </trkpt>
      <trkpt lat="48.68486" lon="1.74481">
        <ele>153.60000610352</ele>
        <time>2014-06-03T14:08:44.000Z</time>
      </trkpt>
      <trkpt lat="48.68478" lon="1.74486">
        <ele>153</ele>
        <time>2014-06-03T14:08:51.000Z</time>
      </trkpt>
      <trkpt lat="48.68468" lon="1.74494">
        <ele>153.19999694824</ele>
        <time>2014-06-03T14:09:00.000Z</time>
      </trkpt>
      <trkpt lat="48.68462" lon="1.74498">
        <ele>153.19999694824</ele>
        <time>2014-06-03T14:09:05.000Z</time>
      </trkpt>
      <trkpt lat="48.68454" lon="1.74503">
        <ele>153.39999389648</ele>
        <time>2014-06-03T14:09:12.000Z</time>
      </trkpt>
      <trkpt lat="48.68448" lon="1.74506">
        <ele>153</ele>
        <time>2014-06-03T14:09:19.000Z</time>
      </trkpt>
      <trkpt lat="48.68447" lon="1.74506">
        <ele>152.80000305176</ele>
        <time>2014-06-03T14:09:21.000Z</time>
      </trkpt>
      <trkpt lat="48.68433" lon="1.74513">
        <ele>152.19999694824</ele>
        <time>2014-06-03T14:10:06.000Z</time>
      </trkpt>
      <trkpt lat="48.68421" lon="1.74523">
        <ele>153.60000610352</ele>
        <time>2014-06-03T14:10:15.000Z</time>
      </trkpt>
      <trkpt lat="48.68411" lon="1.7453">
        <ele>154.60000610352</ele>
        <time>2014-06-03T14:10:23.000Z</time>
      </trkpt>
      <trkpt lat="48.68404" lon="1.74538">
        <ele>155.60000610352</ele>
        <time>2014-06-03T14:10:31.000Z</time>
      </trkpt>
      <trkpt lat="48.68399" lon="1.74547">
        <ele>155.19999694824</ele>
        <time>2014-06-03T14:10:38.000Z</time>
      </trkpt>
      <trkpt lat="48.68395" lon="1.7455">
        <ele>155</ele>
        <time>2014-06-03T14:10:41.000Z</time>
      </trkpt>
      <trkpt lat="48.68391" lon="1.7456">
        <ele>154.60000610352</ele>
        <time>2014-06-03T14:10:48.000Z</time>
      </trkpt>
      <trkpt lat="48.68385" lon="1.74572">
        <ele>154</ele>
        <time>2014-06-03T14:10:55.000Z</time>
      </trkpt>
      <trkpt lat="48.68377" lon="1.74586">
        <ele>154.80000305176</ele>
        <time>2014-06-03T14:11:04.000Z</time>
      </trkpt>
      <trkpt lat="48.68371" lon="1.74602">
        <ele>155</ele>
        <time>2014-06-03T14:11:12.000Z</time>
      </trkpt>
      <trkpt lat="48.68366" lon="1.74618">
        <ele>154.39999389648</ele>
        <time>2014-06-03T14:11:20.000Z</time>
      </trkpt>
      <trkpt lat="48.6836" lon="1.74635">
        <ele>153.80000305176</ele>
        <time>2014-06-03T14:11:28.000Z</time>
      </trkpt>
      <trkpt lat="48.68358" lon="1.7464">
        <ele>153.60000610352</ele>
        <time>2014-06-03T14:11:30.000Z</time>
      </trkpt>
      <trkpt lat="48.68353" lon="1.74652">
        <ele>153</ele>
        <time>2014-06-03T14:11:36.000Z</time>
      </trkpt>
      <trkpt lat="48.68349" lon="1.7466">
        <ele>153.39999389648</ele>
        <time>2014-06-03T14:11:40.000Z</time>
      </trkpt>
      <trkpt lat="48.68342" lon="1.74672">
        <ele>154.39999389648</ele>
        <time>2014-06-03T14:11:48.000Z</time>
      </trkpt>
      <trkpt lat="48.6834" lon="1.74676">
        <ele>154.80000305176</ele>
        <time>2014-06-03T14:11:50.000Z</time>
      </trkpt>
      <trkpt lat="48.68337" lon="1.74688">
        <ele>155.39999389648</ele>
        <time>2014-06-03T14:11:56.000Z</time>
      </trkpt>
      <trkpt lat="48.68329" lon="1.74703">
        <ele>156.39999389648</ele>
        <time>2014-06-03T14:12:04.000Z</time>
      </trkpt>
      <trkpt lat="48.68321" lon="1.74714">
        <ele>156.60000610352</ele>
        <time>2014-06-03T14:12:12.000Z</time>
      </trkpt>
      <trkpt lat="48.68312" lon="1.74731">
        <ele>155.39999389648</ele>
        <time>2014-06-03T14:12:21.000Z</time>
      </trkpt>
      <trkpt lat="48.68305" lon="1.74743">
        <ele>155.19999694824</ele>
        <time>2014-06-03T14:12:28.000Z</time>
      </trkpt>
      <trkpt lat="48.68296" lon="1.74757">
        <ele>155.60000610352</ele>
        <time>2014-06-03T14:12:36.000Z</time>
      </trkpt>
      <trkpt lat="48.6829" lon="1.74768">
        <ele>155.19999694824</ele>
        <time>2014-06-03T14:12:43.000Z</time>
      </trkpt>
      <trkpt lat="48.68283" lon="1.74784">
        <ele>154.19999694824</ele>
        <time>2014-06-03T14:12:53.000Z</time>
      </trkpt>
      <trkpt lat="48.68277" lon="1.74798">
        <ele>153.19999694824</ele>
        <time>2014-06-03T14:13:01.000Z</time>
      </trkpt>
      <trkpt lat="48.68272" lon="1.74812">
        <ele>152.39999389648</ele>
        <time>2014-06-03T14:13:08.000Z</time>
      </trkpt>
      <trkpt lat="48.68265" lon="1.74828">
        <ele>152.39999389648</ele>
        <time>2014-06-03T14:13:16.000Z</time>
      </trkpt>
      <trkpt lat="48.6826" lon="1.74836">
        <ele>152.60000610352</ele>
        <time>2014-06-03T14:13:23.000Z</time>
      </trkpt>
      <trkpt lat="48.68255" lon="1.74845">
        <ele>152.80000305176</ele>
        <time>2014-06-03T14:13:29.000Z</time>
      </trkpt>
      <trkpt lat="48.68254" lon="1.74847">
        <ele>153</ele>
        <time>2014-06-03T14:13:30.000Z</time>
      </trkpt>
      <trkpt lat="48.68248" lon="1.7486">
        <ele>153.39999389648</ele>
        <time>2014-06-03T14:13:37.000Z</time>
      </trkpt>
      <trkpt lat="48.68245" lon="1.74869">
        <ele>153.39999389648</ele>
        <time>2014-06-03T14:13:43.000Z</time>
      </trkpt>
      <trkpt lat="48.68242" lon="1.74878">
        <ele>153.60000610352</ele>
        <time>2014-06-03T14:13:48.000Z</time>
      </trkpt>
      <trkpt lat="48.68238" lon="1.74897">
        <ele>152.19999694824</ele>
        <time>2014-06-03T14:13:57.000Z</time>
      </trkpt>
      <trkpt lat="48.68233" lon="1.7491">
        <ele>152</ele>
        <time>2014-06-03T14:14:03.000Z</time>
      </trkpt>
      <trkpt lat="48.68228" lon="1.74926">
        <ele>152.80000305176</ele>
        <time>2014-06-03T14:14:11.000Z</time>
      </trkpt>
      <trkpt lat="48.68224" lon="1.7494">
        <ele>153.60000610352</ele>
        <time>2014-06-03T14:14:18.000Z</time>
      </trkpt>
      <trkpt lat="48.68224" lon="1.74941">
        <ele>153.60000610352</ele>
        <time>2014-06-03T14:14:19.000Z</time>
      </trkpt>
      <trkpt lat="48.68219" lon="1.74959">
        <ele>153</ele>
        <time>2014-06-03T14:14:27.000Z</time>
      </trkpt>
      <trkpt lat="48.68218" lon="1.74963">
        <ele>153</ele>
        <time>2014-06-03T14:14:29.000Z</time>
      </trkpt>
      <trkpt lat="48.68216" lon="1.74975">
        <ele>152.60000610352</ele>
        <time>2014-06-03T14:14:35.000Z</time>
      </trkpt>
      <trkpt lat="48.68216" lon="1.74979">
        <ele>152.60000610352</ele>
        <time>2014-06-03T14:14:37.000Z</time>
      </trkpt>
      <trkpt lat="48.68215" lon="1.74992">
        <ele>152.60000610352</ele>
        <time>2014-06-03T14:14:45.000Z</time>
      </trkpt>
      <trkpt lat="48.68205" lon="1.75016">
        <ele>152.80000305176</ele>
        <time>2014-06-03T14:14:55.000Z</time>
      </trkpt>
      <trkpt lat="48.682" lon="1.75027">
        <ele>152.19999694824</ele>
        <time>2014-06-03T14:15:01.000Z</time>
      </trkpt>
      <trkpt lat="48.68195" lon="1.75041">
        <ele>151.80000305176</ele>
        <time>2014-06-03T14:15:09.000Z</time>
      </trkpt>
      <trkpt lat="48.68194" lon="1.75044">
        <ele>151.60000610352</ele>
        <time>2014-06-03T14:15:11.000Z</time>
      </trkpt>
      <trkpt lat="48.68188" lon="1.75059">
        <ele>151.19999694824</ele>
        <time>2014-06-03T14:15:19.000Z</time>
      </trkpt>
      <trkpt lat="48.68184" lon="1.7507">
        <ele>151</ele>
        <time>2014-06-03T14:15:24.000Z</time>
      </trkpt>
      <trkpt lat="48.68184" lon="1.75071">
        <ele>150.80000305176</ele>
        <time>2014-06-03T14:15:25.000Z</time>
      </trkpt>
      <trkpt lat="48.6818" lon="1.75081">
        <ele>151.19999694824</ele>
        <time>2014-06-03T14:15:30.000Z</time>
      </trkpt>
      <trkpt lat="48.68176" lon="1.75089">
        <ele>151.39999389648</ele>
        <time>2014-06-03T14:15:35.000Z</time>
      </trkpt>
      <trkpt lat="48.68167" lon="1.75106">
        <ele>152</ele>
        <time>2014-06-03T14:15:43.000Z</time>
      </trkpt>
      <trkpt lat="48.68161" lon="1.75114">
        <ele>152</ele>
        <time>2014-06-03T14:15:49.000Z</time>
      </trkpt>
      <trkpt lat="48.68156" lon="1.75127">
        <ele>152.39999389648</ele>
        <time>2014-06-03T14:15:56.000Z</time>
      </trkpt>
      <trkpt lat="48.68147" lon="1.7514">
        <ele>151.80000305176</ele>
        <time>2014-06-03T14:16:05.000Z</time>
      </trkpt>
      <trkpt lat="48.68139" lon="1.75149">
        <ele>151.39999389648</ele>
        <time>2014-06-03T14:16:12.000Z</time>
      </trkpt>
      <trkpt lat="48.6813" lon="1.75163">
        <ele>150.60000610352</ele>
        <time>2014-06-03T14:16:20.000Z</time>
      </trkpt>
      <trkpt lat="48.68119" lon="1.75179">
        <ele>149.80000305176</ele>
        <time>2014-06-03T14:16:31.000Z</time>
      </trkpt>
      <trkpt lat="48.68108" lon="1.75197">
        <ele>149.80000305176</ele>
        <time>2014-06-03T14:16:42.000Z</time>
      </trkpt>
      <trkpt lat="48.68098" lon="1.75212">
        <ele>150</ele>
        <time>2014-06-03T14:16:50.000Z</time>
      </trkpt>
      <trkpt lat="48.68091" lon="1.75224">
        <ele>150.39999389648</ele>
        <time>2014-06-03T14:16:58.000Z</time>
      </trkpt>
      <trkpt lat="48.68088" lon="1.75233">
        <ele>150.19999694824</ele>
        <time>2014-06-03T14:17:04.000Z</time>
      </trkpt>
      <trkpt lat="48.68083" lon="1.75251">
        <ele>150</ele>
        <time>2014-06-03T14:17:14.000Z</time>
      </trkpt>
      <trkpt lat="48.6808" lon="1.75267">
        <ele>149.80000305176</ele>
        <time>2014-06-03T14:17:22.000Z</time>
      </trkpt>
      <trkpt lat="48.68075" lon="1.75291">
        <ele>149.60000610352</ele>
        <time>2014-06-03T14:17:32.000Z</time>
      </trkpt>
      <trkpt lat="48.68073" lon="1.75311">
        <ele>149.80000305176</ele>
        <time>2014-06-03T14:17:41.000Z</time>
      </trkpt>
      <trkpt lat="48.68072" lon="1.75328">
        <ele>149.80000305176</ele>
        <time>2014-06-03T14:17:49.000Z</time>
      </trkpt>
      <trkpt lat="48.6807" lon="1.7535">
        <ele>149.39999389648</ele>
        <time>2014-06-03T14:17:59.000Z</time>
      </trkpt>
      <trkpt lat="48.68069" lon="1.7537">
        <ele>149.19999694824</ele>
        <time>2014-06-03T14:18:08.000Z</time>
      </trkpt>
      <trkpt lat="48.68065" lon="1.75396">
        <ele>149</ele>
        <time>2014-06-03T14:18:20.000Z</time>
      </trkpt>
      <trkpt lat="48.68061" lon="1.75418">
        <ele>149</ele>
        <time>2014-06-03T14:18:30.000Z</time>
      </trkpt>
      <trkpt lat="48.68057" lon="1.75438">
        <ele>148.80000305176</ele>
        <time>2014-06-03T14:18:40.000Z</time>
      </trkpt>
      <trkpt lat="48.68053" lon="1.75461">
        <ele>148.19999694824</ele>
        <time>2014-06-03T14:18:51.000Z</time>
      </trkpt>
      <trkpt lat="48.6805" lon="1.75481">
        <ele>147.60000610352</ele>
        <time>2014-06-03T14:19:00.000Z</time>
      </trkpt>
      <trkpt lat="48.68048" lon="1.75501">
        <ele>147.39999389648</ele>
        <time>2014-06-03T14:19:09.000Z</time>
      </trkpt>
      <trkpt lat="48.68051" lon="1.75513">
        <ele>147.39999389648</ele>
        <time>2014-06-03T14:19:16.000Z</time>
      </trkpt>
      <trkpt lat="48.68061" lon="1.7552">
        <ele>148</ele>
        <time>2014-06-03T14:19:23.000Z</time>
      </trkpt>
      <trkpt lat="48.68074" lon="1.75533">
        <ele>148.60000610352</ele>
        <time>2014-06-03T14:19:33.000Z</time>
      </trkpt>
      <trkpt lat="48.68087" lon="1.75542">
        <ele>149.19999694824</ele>
        <time>2014-06-03T14:19:43.000Z</time>
      </trkpt>
      <trkpt lat="48.68098" lon="1.75552">
        <ele>149.80000305176</ele>
        <time>2014-06-03T14:19:52.000Z</time>
      </trkpt>
      <trkpt lat="48.68108" lon="1.75563">
        <ele>150.19999694824</ele>
        <time>2014-06-03T14:20:01.000Z</time>
      </trkpt>
      <trkpt lat="48.68121" lon="1.75573">
        <ele>150.39999389648</ele>
        <time>2014-06-03T14:20:11.000Z</time>
      </trkpt>
      <trkpt lat="48.68134" lon="1.75583">
        <ele>150.80000305176</ele>
        <time>2014-06-03T14:20:21.000Z</time>
      </trkpt>
      <trkpt lat="48.68141" lon="1.75587">
        <ele>151</ele>
        <time>2014-06-03T14:20:27.000Z</time>
      </trkpt>
      <trkpt lat="48.68144" lon="1.7559">
        <ele>151</ele>
        <time>2014-06-03T14:20:31.000Z</time>
      </trkpt>
      <trkpt lat="48.68152" lon="1.75594">
        <ele>151.19999694824</ele>
        <time>2014-06-03T14:20:40.000Z</time>
      </trkpt>
      <trkpt lat="48.68165" lon="1.756">
        <ele>151.39999389648</ele>
        <time>2014-06-03T14:20:49.000Z</time>
      </trkpt>
      <trkpt lat="48.68174" lon="1.75605">
        <ele>151.80000305176</ele>
        <time>2014-06-03T14:20:56.000Z</time>
      </trkpt>
      <trkpt lat="48.68186" lon="1.75608">
        <ele>152</ele>
        <time>2014-06-03T14:21:05.000Z</time>
      </trkpt>
      <trkpt lat="48.68198" lon="1.75614">
        <ele>152.19999694824</ele>
        <time>2014-06-03T14:21:15.000Z</time>
      </trkpt>
      <trkpt lat="48.68211" lon="1.75618">
        <ele>152.19999694824</ele>
        <time>2014-06-03T14:21:23.000Z</time>
      </trkpt>
      <trkpt lat="48.6822" lon="1.75621">
        <ele>152.39999389648</ele>
        <time>2014-06-03T14:21:30.000Z</time>
      </trkpt>
      <trkpt lat="48.68232" lon="1.75625">
        <ele>152.60000610352</ele>
        <time>2014-06-03T14:21:39.000Z</time>
      </trkpt>
      <trkpt lat="48.68244" lon="1.75628">
        <ele>152.60000610352</ele>
        <time>2014-06-03T14:21:48.000Z</time>
      </trkpt>
      <trkpt lat="48.68255" lon="1.75632">
        <ele>152.80000305176</ele>
        <time>2014-06-03T14:21:56.000Z</time>
      </trkpt>
      <trkpt lat="48.68269" lon="1.75637">
        <ele>153</ele>
        <time>2014-06-03T14:22:06.000Z</time>
      </trkpt>
      <trkpt lat="48.68284" lon="1.75641">
        <ele>152.80000305176</ele>
        <time>2014-06-03T14:22:16.000Z</time>
      </trkpt>
      <trkpt lat="48.68298" lon="1.75645">
        <ele>152.60000610352</ele>
        <time>2014-06-03T14:22:25.000Z</time>
      </trkpt>
      <trkpt lat="48.68313" lon="1.75644">
        <ele>152.39999389648</ele>
        <time>2014-06-03T14:22:35.000Z</time>
      </trkpt>
      <trkpt lat="48.68329" lon="1.75638">
        <ele>152.19999694824</ele>
        <time>2014-06-03T14:22:46.000Z</time>
      </trkpt>
      <trkpt lat="48.68335" lon="1.75632">
        <ele>152.19999694824</ele>
        <time>2014-06-03T14:22:52.000Z</time>
      </trkpt>
      <trkpt lat="48.68337" lon="1.7563">
        <ele>152.19999694824</ele>
        <time>2014-06-03T14:22:54.000Z</time>
      </trkpt>
      <trkpt lat="48.68344" lon="1.75627">
        <ele>152.39999389648</ele>
        <time>2014-06-03T14:22:59.000Z</time>
      </trkpt>
      <trkpt lat="48.68354" lon="1.75622">
        <ele>152.39999389648</ele>
        <time>2014-06-03T14:23:07.000Z</time>
      </trkpt>
      <trkpt lat="48.6836" lon="1.75616">
        <ele>152.60000610352</ele>
        <time>2014-06-03T14:23:12.000Z</time>
      </trkpt>
      <trkpt lat="48.68361" lon="1.75614">
        <ele>152.60000610352</ele>
        <time>2014-06-03T14:23:13.000Z</time>
      </trkpt>
      <trkpt lat="48.68372" lon="1.75607">
        <ele>153</ele>
        <time>2014-06-03T14:23:19.000Z</time>
      </trkpt>
      <trkpt lat="48.68382" lon="1.75601">
        <ele>153.39999389648</ele>
        <time>2014-06-03T14:23:26.000Z</time>
      </trkpt>
      <trkpt lat="48.68393" lon="1.75594">
        <ele>153.60000610352</ele>
        <time>2014-06-03T14:23:35.000Z</time>
      </trkpt>
      <trkpt lat="48.68405" lon="1.75588">
        <ele>154</ele>
        <time>2014-06-03T14:23:43.000Z</time>
      </trkpt>
      <trkpt lat="48.68414" lon="1.75586">
        <ele>154.19999694824</ele>
        <time>2014-06-03T14:23:50.000Z</time>
      </trkpt>
      <trkpt lat="48.68423" lon="1.75584">
        <ele>154.60000610352</ele>
        <time>2014-06-03T14:23:56.000Z</time>
      </trkpt>
      <trkpt lat="48.68429" lon="1.75581">
        <ele>154.80000305176</ele>
        <time>2014-06-03T14:24:01.000Z</time>
      </trkpt>
      <trkpt lat="48.6844" lon="1.75578">
        <ele>155</ele>
        <time>2014-06-03T14:24:09.000Z</time>
      </trkpt>
      <trkpt lat="48.6845" lon="1.75572">
        <ele>155</ele>
        <time>2014-06-03T14:24:16.000Z</time>
      </trkpt>
      <trkpt lat="48.68462" lon="1.75564">
        <ele>155.39999389648</ele>
        <time>2014-06-03T14:24:25.000Z</time>
      </trkpt>
      <trkpt lat="48.68473" lon="1.75558">
        <ele>156</ele>
        <time>2014-06-03T14:24:33.000Z</time>
      </trkpt>
      <trkpt lat="48.68474" lon="1.75558">
        <ele>156</ele>
        <time>2014-06-03T14:24:34.000Z</time>
      </trkpt>
      <trkpt lat="48.68484" lon="1.75553">
        <ele>156.39999389648</ele>
        <time>2014-06-03T14:24:41.000Z</time>
      </trkpt>
      <trkpt lat="48.68495" lon="1.75548">
        <ele>156.60000610352</ele>
        <time>2014-06-03T14:24:49.000Z</time>
      </trkpt>
      <trkpt lat="48.68497" lon="1.75546">
        <ele>156.80000305176</ele>
        <time>2014-06-03T14:24:55.000Z</time>
      </trkpt>
      <trkpt lat="48.68501" lon="1.75542">
        <ele>156.80000305176</ele>
        <time>2014-06-03T14:25:08.000Z</time>
      </trkpt>
      <trkpt lat="48.68508" lon="1.75541">
        <ele>156.80000305176</ele>
        <time>2014-06-03T14:25:12.000Z</time>
      </trkpt>
      <trkpt lat="48.68509" lon="1.75541">
        <ele>156.60000610352</ele>
        <time>2014-06-03T14:25:14.000Z</time>
      </trkpt>
      <trkpt lat="48.68511" lon="1.75553">
        <ele>156</ele>
        <time>2014-06-03T14:25:20.000Z</time>
      </trkpt>
      <trkpt lat="48.68514" lon="1.7557">
        <ele>155</ele>
        <time>2014-06-03T14:25:27.000Z</time>
      </trkpt>
      <trkpt lat="48.68515" lon="1.7558">
        <ele>155</ele>
        <time>2014-06-03T14:25:31.000Z</time>
      </trkpt>
      <trkpt lat="48.68517" lon="1.75589">
        <ele>155</ele>
        <time>2014-06-03T14:25:35.000Z</time>
      </trkpt>
      <trkpt lat="48.68518" lon="1.75598">
        <ele>155</ele>
        <time>2014-06-03T14:25:39.000Z</time>
      </trkpt>
      <trkpt lat="48.6852" lon="1.7561">
        <ele>155</ele>
        <time>2014-06-03T14:25:44.000Z</time>
      </trkpt>
      <trkpt lat="48.68521" lon="1.75613">
        <ele>155</ele>
        <time>2014-06-03T14:25:49.000Z</time>
      </trkpt>
      <trkpt lat="48.6852" lon="1.75621">
        <ele>155</ele>
        <time>2014-06-03T14:25:55.000Z</time>
      </trkpt>
      <trkpt lat="48.68523" lon="1.7563">
        <ele>155.19999694824</ele>
        <time>2014-06-03T14:25:58.000Z</time>
      </trkpt>
      <trkpt lat="48.68527" lon="1.75649">
        <ele>155.19999694824</ele>
        <time>2014-06-03T14:26:05.000Z</time>
      </trkpt>
      <trkpt lat="48.68527" lon="1.75661">
        <ele>155.19999694824</ele>
        <time>2014-06-03T14:26:09.000Z</time>
      </trkpt>
      <trkpt lat="48.68527" lon="1.75664">
        <ele>155</ele>
        <time>2014-06-03T14:26:10.000Z</time>
      </trkpt>
      <trkpt lat="48.6853" lon="1.75672">
        <ele>155</ele>
        <time>2014-06-03T14:26:14.000Z</time>
      </trkpt>
      <trkpt lat="48.68533" lon="1.75689">
        <ele>154.60000610352</ele>
        <time>2014-06-03T14:26:22.000Z</time>
      </trkpt>
      <trkpt lat="48.68536" lon="1.75705">
        <ele>154.39999389648</ele>
        <time>2014-06-03T14:26:29.000Z</time>
      </trkpt>
      <trkpt lat="48.68538" lon="1.75722">
        <ele>154</ele>
        <time>2014-06-03T14:26:36.000Z</time>
      </trkpt>
      <trkpt lat="48.68542" lon="1.75738">
        <ele>153.80000305176</ele>
        <time>2014-06-03T14:26:42.000Z</time>
      </trkpt>
      <trkpt lat="48.68545" lon="1.7575">
        <ele>153.60000610352</ele>
        <time>2014-06-03T14:26:48.000Z</time>
      </trkpt>
      <trkpt lat="48.68546" lon="1.75769">
        <ele>153.19999694824</ele>
        <time>2014-06-03T14:26:57.000Z</time>
      </trkpt>
      <trkpt lat="48.68548" lon="1.75787">
        <ele>153</ele>
        <time>2014-06-03T14:27:05.000Z</time>
      </trkpt>
      <trkpt lat="48.68549" lon="1.75798">
        <ele>153</ele>
        <time>2014-06-03T14:27:11.000Z</time>
      </trkpt>
      <trkpt lat="48.68552" lon="1.75812">
        <ele>152.80000305176</ele>
        <time>2014-06-03T14:27:18.000Z</time>
      </trkpt>
      <trkpt lat="48.68552" lon="1.75825">
        <ele>152.80000305176</ele>
        <time>2014-06-03T14:27:25.000Z</time>
      </trkpt>
      <trkpt lat="48.68553" lon="1.7584">
        <ele>152.60000610352</ele>
        <time>2014-06-03T14:27:33.000Z</time>
      </trkpt>
      <trkpt lat="48.68555" lon="1.75857">
        <ele>152.39999389648</ele>
        <time>2014-06-03T14:27:41.000Z</time>
      </trkpt>
      <trkpt lat="48.68556" lon="1.75869">
        <ele>152</ele>
        <time>2014-06-03T14:27:47.000Z</time>
      </trkpt>
      <trkpt lat="48.68557" lon="1.75887">
        <ele>151.39999389648</ele>
        <time>2014-06-03T14:27:55.000Z</time>
      </trkpt>
      <trkpt lat="48.68562" lon="1.75904">
        <ele>151</ele>
        <time>2014-06-03T14:28:04.000Z</time>
      </trkpt>
      <trkpt lat="48.68562" lon="1.75918">
        <ele>151</ele>
        <time>2014-06-03T14:28:11.000Z</time>
      </trkpt>
      <trkpt lat="48.68563" lon="1.75932">
        <ele>151</ele>
        <time>2014-06-03T14:28:17.000Z</time>
      </trkpt>
      <trkpt lat="48.68565" lon="1.75949">
        <ele>151.19999694824</ele>
        <time>2014-06-03T14:28:25.000Z</time>
      </trkpt>
      <trkpt lat="48.68567" lon="1.75966">
        <ele>151.39999389648</ele>
        <time>2014-06-03T14:28:33.000Z</time>
      </trkpt>
      <trkpt lat="48.6857" lon="1.75983">
        <ele>151.80000305176</ele>
        <time>2014-06-03T14:28:41.000Z</time>
      </trkpt>
      <trkpt lat="48.68572" lon="1.75988">
        <ele>151.80000305176</ele>
        <time>2014-06-03T14:28:44.000Z</time>
      </trkpt>
      <trkpt lat="48.6857" lon="1.76001">
        <ele>151.80000305176</ele>
        <time>2014-06-03T14:28:50.000Z</time>
      </trkpt>
      <trkpt lat="48.68574" lon="1.76003">
        <ele>152</ele>
        <time>2014-06-03T14:28:55.000Z</time>
      </trkpt>
      <trkpt lat="48.68582" lon="1.76005">
        <ele>152.19999694824</ele>
        <time>2014-06-03T14:29:02.000Z</time>
      </trkpt>
      <trkpt lat="48.68592" lon="1.76007">
        <ele>152.60000610352</ele>
        <time>2014-06-03T14:29:09.000Z</time>
      </trkpt>
      <trkpt lat="48.68597" lon="1.76008">
        <ele>152.80000305176</ele>
        <time>2014-06-03T14:29:12.000Z</time>
      </trkpt>
      <trkpt lat="48.68605" lon="1.76011">
        <ele>153.19999694824</ele>
        <time>2014-06-03T14:29:18.000Z</time>
      </trkpt>
      <trkpt lat="48.68616" lon="1.76015">
        <ele>153.80000305176</ele>
        <time>2014-06-03T14:29:25.000Z</time>
      </trkpt>
      <trkpt lat="48.68627" lon="1.76018">
        <ele>154.39999389648</ele>
        <time>2014-06-03T14:29:32.000Z</time>
      </trkpt>
      <trkpt lat="48.6864" lon="1.76021">
        <ele>155.19999694824</ele>
        <time>2014-06-03T14:29:39.000Z</time>
      </trkpt>
      <trkpt lat="48.6865" lon="1.76027">
        <ele>156</ele>
        <time>2014-06-03T14:29:44.000Z</time>
      </trkpt>
      <trkpt lat="48.68666" lon="1.76034">
        <ele>157.19999694824</ele>
        <time>2014-06-03T14:29:49.000Z</time>
      </trkpt>
      <trkpt lat="48.68691" lon="1.76041">
        <ele>159</ele>
        <time>2014-06-03T14:29:56.000Z</time>
      </trkpt>
      <trkpt lat="48.6871" lon="1.76047">
        <ele>160.19999694824</ele>
        <time>2014-06-03T14:30:01.000Z</time>
      </trkpt>
      <trkpt lat="48.68736" lon="1.76058">
        <ele>161.80000305176</ele>
        <time>2014-06-03T14:30:08.000Z</time>
      </trkpt>
      <trkpt lat="48.68759" lon="1.76064">
        <ele>163.39999389648</ele>
        <time>2014-06-03T14:30:14.000Z</time>
      </trkpt>
      <trkpt lat="48.68775" lon="1.76071">
        <ele>164.19999694824</ele>
        <time>2014-06-03T14:30:18.000Z</time>
      </trkpt>
      <trkpt lat="48.68782" lon="1.76075">
        <ele>164.60000610352</ele>
        <time>2014-06-03T14:30:20.000Z</time>
      </trkpt>
      <trkpt lat="48.68801" lon="1.76083">
        <ele>165.60000610352</ele>
        <time>2014-06-03T14:30:25.000Z</time>
      </trkpt>
      <trkpt lat="48.68811" lon="1.76085">
        <ele>166</ele>
        <time>2014-06-03T14:30:27.000Z</time>
      </trkpt>
      <trkpt lat="48.68834" lon="1.761">
        <ele>167.39999389648</ele>
        <time>2014-06-03T14:30:34.000Z</time>
      </trkpt>
      <trkpt lat="48.68846" lon="1.76106">
        <ele>168</ele>
        <time>2014-06-03T14:30:37.000Z</time>
      </trkpt>
      <trkpt lat="48.68882" lon="1.76113">
        <ele>170.60000610352</ele>
        <time>2014-06-03T14:30:44.000Z</time>
      </trkpt>
      <trkpt lat="48.689" lon="1.76116">
        <ele>172</ele>
        <time>2014-06-03T14:30:48.000Z</time>
      </trkpt>
      <trkpt lat="48.68919" lon="1.7612">
        <ele>173.39999389648</ele>
        <time>2014-06-03T14:30:53.000Z</time>
      </trkpt>
      <trkpt lat="48.68927" lon="1.76123">
        <ele>173.80000305176</ele>
        <time>2014-06-03T14:30:55.000Z</time>
      </trkpt>
      <trkpt lat="48.68939" lon="1.76127">
        <ele>175</ele>
        <time>2014-06-03T14:31:00.000Z</time>
      </trkpt>
      <trkpt lat="48.68947" lon="1.7613">
        <ele>175.60000610352</ele>
        <time>2014-06-03T14:31:05.000Z</time>
      </trkpt>
      <trkpt lat="48.68948" lon="1.76132">
        <ele>175.80000305176</ele>
        <time>2014-06-03T14:31:06.000Z</time>
      </trkpt>
      <trkpt lat="48.68959" lon="1.76134">
        <ele>176.80000305176</ele>
        <time>2014-06-03T14:31:12.000Z</time>
      </trkpt>
      <trkpt lat="48.68962" lon="1.76135">
        <ele>177.19999694824</ele>
        <time>2014-06-03T14:31:15.000Z</time>
      </trkpt>
      <trkpt lat="48.6897" lon="1.7614">
        <ele>178.19999694824</ele>
        <time>2014-06-03T14:31:21.000Z</time>
      </trkpt>
      <trkpt lat="48.68979" lon="1.76145">
        <ele>179.19999694824</ele>
        <time>2014-06-03T14:31:28.000Z</time>
      </trkpt>
      <trkpt lat="48.68988" lon="1.76154">
        <ele>180.39999389648</ele>
        <time>2014-06-03T14:31:34.000Z</time>
      </trkpt>
      <trkpt lat="48.68996" lon="1.76156">
        <ele>181</ele>
        <time>2014-06-03T14:31:38.000Z</time>
      </trkpt>
      <trkpt lat="48.69001" lon="1.76158">
        <ele>181.39999389648</ele>
        <time>2014-06-03T14:31:42.000Z</time>
      </trkpt>
      <trkpt lat="48.6901" lon="1.76162">
        <ele>182.19999694824</ele>
        <time>2014-06-03T14:31:48.000Z</time>
      </trkpt>
      <trkpt lat="48.6902" lon="1.76169">
        <ele>183</ele>
        <time>2014-06-03T14:31:56.000Z</time>
      </trkpt>
      <trkpt lat="48.6903" lon="1.76174">
        <ele>183.19999694824</ele>
        <time>2014-06-03T14:32:03.000Z</time>
      </trkpt>
      <trkpt lat="48.69038" lon="1.76177">
        <ele>183.19999694824</ele>
        <time>2014-06-03T14:32:09.000Z</time>
      </trkpt>
      <trkpt lat="48.69046" lon="1.76182">
        <ele>183.39999389648</ele>
        <time>2014-06-03T14:32:14.000Z</time>
      </trkpt>
      <trkpt lat="48.6905" lon="1.76186">
        <ele>183.39999389648</ele>
        <time>2014-06-03T14:32:17.000Z</time>
      </trkpt>
      <trkpt lat="48.69059" lon="1.76193">
        <ele>183.39999389648</ele>
        <time>2014-06-03T14:32:24.000Z</time>
      </trkpt>
      <trkpt lat="48.69069" lon="1.762">
        <ele>183.39999389648</ele>
        <time>2014-06-03T14:32:30.000Z</time>
      </trkpt>
      <trkpt lat="48.69082" lon="1.76207">
        <ele>183.60000610352</ele>
        <time>2014-06-03T14:32:36.000Z</time>
      </trkpt>
      <trkpt lat="48.69095" lon="1.76217">
        <ele>183.60000610352</ele>
        <time>2014-06-03T14:32:41.000Z</time>
      </trkpt>
      <trkpt lat="48.69107" lon="1.76225">
        <ele>183.60000610352</ele>
        <time>2014-06-03T14:32:46.000Z</time>
      </trkpt>
      <trkpt lat="48.6912" lon="1.76231">
        <ele>183.60000610352</ele>
        <time>2014-06-03T14:32:50.000Z</time>
      </trkpt>
      <trkpt lat="48.69134" lon="1.76239">
        <ele>183.60000610352</ele>
        <time>2014-06-03T14:32:55.000Z</time>
      </trkpt>
      <trkpt lat="48.69139" lon="1.76238">
        <ele>183.60000610352</ele>
        <time>2014-06-03T14:33:00.000Z</time>
      </trkpt>
      <trkpt lat="48.69143" lon="1.76245">
        <ele>183.60000610352</ele>
        <time>2014-06-03T14:33:08.000Z</time>
      </trkpt>
      <trkpt lat="48.69152" lon="1.76251">
        <ele>183.39999389648</ele>
        <time>2014-06-03T14:33:14.000Z</time>
      </trkpt>
      <trkpt lat="48.6916" lon="1.76254">
        <ele>183.39999389648</ele>
        <time>2014-06-03T14:33:19.000Z</time>
      </trkpt>
      <trkpt lat="48.69165" lon="1.76257">
        <ele>183.19999694824</ele>
        <time>2014-06-03T14:33:22.000Z</time>
      </trkpt>
      <trkpt lat="48.69175" lon="1.76265">
        <ele>183.19999694824</ele>
        <time>2014-06-03T14:33:30.000Z</time>
      </trkpt>
      <trkpt lat="48.69177" lon="1.76266">
        <ele>183.19999694824</ele>
        <time>2014-06-03T14:33:31.000Z</time>
      </trkpt>
      <trkpt lat="48.69183" lon="1.7627">
        <ele>183</ele>
        <time>2014-06-03T14:33:35.000Z</time>
      </trkpt>
      <trkpt lat="48.69186" lon="1.76272">
        <ele>183</ele>
        <time>2014-06-03T14:33:37.000Z</time>
      </trkpt>
      <trkpt lat="48.69192" lon="1.76276">
        <ele>182.80000305176</ele>
        <time>2014-06-03T14:33:42.000Z</time>
      </trkpt>
      <trkpt lat="48.69204" lon="1.76281">
        <ele>182.60000610352</ele>
        <time>2014-06-03T14:33:48.000Z</time>
      </trkpt>
      <trkpt lat="48.69214" lon="1.76287">
        <ele>182.39999389648</ele>
        <time>2014-06-03T14:33:55.000Z</time>
      </trkpt>
      <trkpt lat="48.69225" lon="1.76292">
        <ele>182</ele>
        <time>2014-06-03T14:34:01.000Z</time>
      </trkpt>
      <trkpt lat="48.69238" lon="1.76298">
        <ele>181.80000305176</ele>
        <time>2014-06-03T14:34:09.000Z</time>
      </trkpt>
      <trkpt lat="48.69245" lon="1.76304">
        <ele>181.60000610352</ele>
        <time>2014-06-03T14:34:15.000Z</time>
      </trkpt>
      <trkpt lat="48.69257" lon="1.76313">
        <ele>181.39999389648</ele>
        <time>2014-06-03T14:34:23.000Z</time>
      </trkpt>
      <trkpt lat="48.69268" lon="1.76321">
        <ele>181</ele>
        <time>2014-06-03T14:34:31.000Z</time>
      </trkpt>
      <trkpt lat="48.69276" lon="1.76327">
        <ele>180.80000305176</ele>
        <time>2014-06-03T14:34:37.000Z</time>
      </trkpt>
      <trkpt lat="48.69288" lon="1.76337">
        <ele>180.19999694824</ele>
        <time>2014-06-03T14:34:45.000Z</time>
      </trkpt>
      <trkpt lat="48.693" lon="1.76347">
        <ele>179.80000305176</ele>
        <time>2014-06-03T14:34:53.000Z</time>
      </trkpt>
      <trkpt lat="48.69312" lon="1.7635">
        <ele>179.80000305176</ele>
        <time>2014-06-03T14:35:01.000Z</time>
      </trkpt>
      <trkpt lat="48.69322" lon="1.76353">
        <ele>179.80000305176</ele>
        <time>2014-06-03T14:35:08.000Z</time>
      </trkpt>
      <trkpt lat="48.69333" lon="1.7636">
        <ele>179.39999389648</ele>
        <time>2014-06-03T14:35:14.000Z</time>
      </trkpt>
      <trkpt lat="48.69343" lon="1.76367">
        <ele>179.19999694824</ele>
        <time>2014-06-03T14:35:21.000Z</time>
      </trkpt>
      <trkpt lat="48.69347" lon="1.76365">
        <ele>179.19999694824</ele>
        <time>2014-06-03T14:35:29.000Z</time>
      </trkpt>
      <trkpt lat="48.6936" lon="1.76366">
        <ele>179.19999694824</ele>
        <time>2014-06-03T14:36:06.000Z</time>
      </trkpt>
      <trkpt lat="48.69362" lon="1.76367">
        <ele>179.19999694824</ele>
        <time>2014-06-03T14:36:07.000Z</time>
      </trkpt>
      <trkpt lat="48.69368" lon="1.7637">
        <ele>179</ele>
        <time>2014-06-03T14:36:13.000Z</time>
      </trkpt>
      <trkpt lat="48.69372" lon="1.76372">
        <ele>179</ele>
        <time>2014-06-03T14:36:17.000Z</time>
      </trkpt>
      <trkpt lat="48.6938" lon="1.76379">
        <ele>178.60000610352</ele>
        <time>2014-06-03T14:36:24.000Z</time>
      </trkpt>
      <trkpt lat="48.69386" lon="1.76382">
        <ele>178.39999389648</ele>
        <time>2014-06-03T14:36:31.000Z</time>
      </trkpt>
      <trkpt lat="48.69392" lon="1.76387">
        <ele>178</ele>
        <time>2014-06-03T14:36:37.000Z</time>
      </trkpt>
      <trkpt lat="48.69394" lon="1.76389">
        <ele>178</ele>
        <time>2014-06-03T14:36:39.000Z</time>
      </trkpt>
      <trkpt lat="48.69401" lon="1.76391">
        <ele>177.80000305176</ele>
        <time>2014-06-03T14:36:45.000Z</time>
      </trkpt>
      <trkpt lat="48.69405" lon="1.76394">
        <ele>177.60000610352</ele>
        <time>2014-06-03T14:36:53.000Z</time>
      </trkpt>
      <trkpt lat="48.69409" lon="1.76395">
        <ele>177.60000610352</ele>
        <time>2014-06-03T14:36:59.000Z</time>
      </trkpt>
      <trkpt lat="48.69434" lon="1.76415">
        <ele>176.19999694824</ele>
        <time>2014-06-03T14:37:35.000Z</time>
      </trkpt>
      <trkpt lat="48.69437" lon="1.76417">
        <ele>176</ele>
        <time>2014-06-03T14:37:37.000Z</time>
      </trkpt>
      <trkpt lat="48.69445" lon="1.76416">
        <ele>176.60000610352</ele>
        <time>2014-06-03T14:37:44.000Z</time>
      </trkpt>
      <trkpt lat="48.69452" lon="1.7642">
        <ele>177</ele>
        <time>2014-06-03T14:37:49.000Z</time>
      </trkpt>
      <trkpt lat="48.69455" lon="1.76423">
        <ele>177</ele>
        <time>2014-06-03T14:37:53.000Z</time>
      </trkpt>
      <trkpt lat="48.69457" lon="1.76426">
        <ele>177</ele>
        <time>2014-06-03T14:37:59.000Z</time>
      </trkpt>
      <trkpt lat="48.69458" lon="1.76427">
        <ele>177</ele>
        <time>2014-06-03T14:38:01.000Z</time>
      </trkpt>
      <trkpt lat="48.69455" lon="1.7642">
        <ele>177.19999694824</ele>
        <time>2014-06-03T14:39:15.000Z</time>
      </trkpt>
      <trkpt lat="48.69448" lon="1.76417">
        <ele>177</ele>
        <time>2014-06-03T14:39:20.000Z</time>
      </trkpt>
      <trkpt lat="48.69442" lon="1.76414">
        <ele>176.60000610352</ele>
        <time>2014-06-03T14:39:25.000Z</time>
      </trkpt>
      <trkpt lat="48.69434" lon="1.76411">
        <ele>176.39999389648</ele>
        <time>2014-06-03T14:39:31.000Z</time>
      </trkpt>
      <trkpt lat="48.69426" lon="1.76406">
        <ele>176.80000305176</ele>
        <time>2014-06-03T14:39:37.000Z</time>
      </trkpt>
      <trkpt lat="48.6942" lon="1.76405">
        <ele>177</ele>
        <time>2014-06-03T14:39:42.000Z</time>
      </trkpt>
      <trkpt lat="48.69415" lon="1.76403">
        <ele>177</ele>
        <time>2014-06-03T14:39:47.000Z</time>
      </trkpt>
      <trkpt lat="48.69411" lon="1.76397">
        <ele>177.39999389648</ele>
        <time>2014-06-03T14:39:53.000Z</time>
      </trkpt>
      <trkpt lat="48.69409" lon="1.76394">
        <ele>177.60000610352</ele>
        <time>2014-06-03T14:39:56.000Z</time>
      </trkpt>
      <trkpt lat="48.69401" lon="1.76391">
        <ele>177.80000305176</ele>
        <time>2014-06-03T14:40:03.000Z</time>
      </trkpt>
      <trkpt lat="48.69398" lon="1.76391">
        <ele>177.80000305176</ele>
        <time>2014-06-03T14:40:10.000Z</time>
      </trkpt>
      <trkpt lat="48.69393" lon="1.76386">
        <ele>178.19999694824</ele>
        <time>2014-06-03T14:40:15.000Z</time>
      </trkpt>
      <trkpt lat="48.69387" lon="1.7638">
        <ele>178.39999389648</ele>
        <time>2014-06-03T14:40:22.000Z</time>
      </trkpt>
      <trkpt lat="48.69381" lon="1.76373">
        <ele>178.80000305176</ele>
        <time>2014-06-03T14:40:28.000Z</time>
      </trkpt>
      <trkpt lat="48.69375" lon="1.7637">
        <ele>179</ele>
        <time>2014-06-03T14:40:33.000Z</time>
      </trkpt>
      <trkpt lat="48.69374" lon="1.76367">
        <ele>179.19999694824</ele>
        <time>2014-06-03T14:40:34.000Z</time>
      </trkpt>
      <trkpt lat="48.69369" lon="1.76367">
        <ele>179.19999694824</ele>
        <time>2014-06-03T14:40:38.000Z</time>
      </trkpt>
      <trkpt lat="48.69365" lon="1.76368">
        <ele>179.19999694824</ele>
        <time>2014-06-03T14:40:41.000Z</time>
      </trkpt>
      <trkpt lat="48.69361" lon="1.76364">
        <ele>179.39999389648</ele>
        <time>2014-06-03T14:40:45.000Z</time>
      </trkpt>
      <trkpt lat="48.69359" lon="1.76352">
        <ele>180.19999694824</ele>
        <time>2014-06-03T14:40:52.000Z</time>
      </trkpt>
      <trkpt lat="48.69358" lon="1.76348">
        <ele>180.39999389648</ele>
        <time>2014-06-03T14:40:54.000Z</time>
      </trkpt>
      <trkpt lat="48.69352" lon="1.76338">
        <ele>181</ele>
        <time>2014-06-03T14:41:01.000Z</time>
      </trkpt>
      <trkpt lat="48.69349" lon="1.76323">
        <ele>181.80000305176</ele>
        <time>2014-06-03T14:41:07.000Z</time>
      </trkpt>
      <trkpt lat="48.69347" lon="1.76315">
        <ele>182</ele>
        <time>2014-06-03T14:41:13.000Z</time>
      </trkpt>
      <trkpt lat="48.69346" lon="1.76312">
        <ele>182</ele>
        <time>2014-06-03T14:41:18.000Z</time>
      </trkpt>
      <trkpt lat="48.69346" lon="1.76303">
        <ele>182.19999694824</ele>
        <time>2014-06-03T14:41:26.000Z</time>
      </trkpt>
      <trkpt lat="48.69339" lon="1.76299">
        <ele>182.19999694824</ele>
        <time>2014-06-03T14:41:30.000Z</time>
      </trkpt>
      <trkpt lat="48.69332" lon="1.76294">
        <ele>182</ele>
        <time>2014-06-03T14:41:36.000Z</time>
      </trkpt>
      <trkpt lat="48.69332" lon="1.76292">
        <ele>182</ele>
        <time>2014-06-03T14:41:38.000Z</time>
      </trkpt>
      <trkpt lat="48.69331" lon="1.76283">
        <ele>182.19999694824</ele>
        <time>2014-06-03T14:41:44.000Z</time>
      </trkpt>
      <trkpt lat="48.69334" lon="1.76274">
        <ele>182.39999389648</ele>
        <time>2014-06-03T14:41:51.000Z</time>
      </trkpt>
      <trkpt lat="48.69337" lon="1.76267">
        <ele>182.39999389648</ele>
        <time>2014-06-03T14:41:59.000Z</time>
      </trkpt>
      <trkpt lat="48.69341" lon="1.76257">
        <ele>182.60000610352</ele>
        <time>2014-06-03T14:42:05.000Z</time>
      </trkpt>
      <trkpt lat="48.69346" lon="1.76248">
        <ele>182.80000305176</ele>
        <time>2014-06-03T14:42:10.000Z</time>
      </trkpt>
      <trkpt lat="48.69349" lon="1.7624">
        <ele>183</ele>
        <time>2014-06-03T14:42:14.000Z</time>
      </trkpt>
      <trkpt lat="48.69358" lon="1.76224">
        <ele>182.80000305176</ele>
        <time>2014-06-03T14:42:23.000Z</time>
      </trkpt>
      <trkpt lat="48.69365" lon="1.76205">
        <ele>182.39999389648</ele>
        <time>2014-06-03T14:42:30.000Z</time>
      </trkpt>
      <trkpt lat="48.69368" lon="1.76193">
        <ele>182.19999694824</ele>
        <time>2014-06-03T14:42:35.000Z</time>
      </trkpt>
      <trkpt lat="48.69372" lon="1.76186">
        <ele>182.19999694824</ele>
        <time>2014-06-03T14:42:39.000Z</time>
      </trkpt>
      <trkpt lat="48.69378" lon="1.76175">
        <ele>182</ele>
        <time>2014-06-03T14:42:45.000Z</time>
      </trkpt>
      <trkpt lat="48.69379" lon="1.76173">
        <ele>182</ele>
        <time>2014-06-03T14:42:46.000Z</time>
      </trkpt>
      <trkpt lat="48.69385" lon="1.76157">
        <ele>182</ele>
        <time>2014-06-03T14:42:54.000Z</time>
      </trkpt>
      <trkpt lat="48.69386" lon="1.76155">
        <ele>182</ele>
        <time>2014-06-03T14:42:55.000Z</time>
      </trkpt>
      <trkpt lat="48.69394" lon="1.76148">
        <ele>181.60000610352</ele>
        <time>2014-06-03T14:43:01.000Z</time>
      </trkpt>
      <trkpt lat="48.69396" lon="1.76147">
        <ele>181.60000610352</ele>
        <time>2014-06-03T14:43:03.000Z</time>
      </trkpt>
      <trkpt lat="48.69401" lon="1.76147">
        <ele>181.60000610352</ele>
        <time>2014-06-03T14:43:07.000Z</time>
      </trkpt>
      <trkpt lat="48.69408" lon="1.7615">
        <ele>181.80000305176</ele>
        <time>2014-06-03T14:43:11.000Z</time>
      </trkpt>
      <trkpt lat="48.69416" lon="1.76153">
        <ele>182</ele>
        <time>2014-06-03T14:43:16.000Z</time>
      </trkpt>
      <trkpt lat="48.69427" lon="1.76155">
        <ele>182</ele>
        <time>2014-06-03T14:43:24.000Z</time>
      </trkpt>
      <trkpt lat="48.69437" lon="1.7616">
        <ele>182</ele>
        <time>2014-06-03T14:43:30.000Z</time>
      </trkpt>
      <trkpt lat="48.69448" lon="1.76163">
        <ele>182.19999694824</ele>
        <time>2014-06-03T14:43:36.000Z</time>
      </trkpt>
      <trkpt lat="48.69457" lon="1.76166">
        <ele>182.39999389648</ele>
        <time>2014-06-03T14:43:42.000Z</time>
      </trkpt>
      <trkpt lat="48.69463" lon="1.76168">
        <ele>182.39999389648</ele>
        <time>2014-06-03T14:43:46.000Z</time>
      </trkpt>
      <trkpt lat="48.69478" lon="1.76176">
        <ele>182.80000305176</ele>
        <time>2014-06-03T14:43:55.000Z</time>
      </trkpt>
      <trkpt lat="48.69485" lon="1.76181">
        <ele>182.80000305176</ele>
        <time>2014-06-03T14:43:59.000Z</time>
      </trkpt>
      <trkpt lat="48.69494" lon="1.76196">
        <ele>183.19999694824</ele>
        <time>2014-06-03T14:44:07.000Z</time>
      </trkpt>
      <trkpt lat="48.69499" lon="1.76206">
        <ele>183.39999389648</ele>
        <time>2014-06-03T14:44:13.000Z</time>
      </trkpt>
      <trkpt lat="48.69511" lon="1.76219">
        <ele>183.60000610352</ele>
        <time>2014-06-03T14:44:20.000Z</time>
      </trkpt>
      <trkpt lat="48.69517" lon="1.76226">
        <ele>183.80000305176</ele>
        <time>2014-06-03T14:44:25.000Z</time>
      </trkpt>
      <trkpt lat="48.69524" lon="1.76238">
        <ele>184</ele>
        <time>2014-06-03T14:44:31.000Z</time>
      </trkpt>
      <trkpt lat="48.69531" lon="1.76254">
        <ele>183.80000305176</ele>
        <time>2014-06-03T14:44:39.000Z</time>
      </trkpt>
      <trkpt lat="48.69538" lon="1.76265">
        <ele>183.60000610352</ele>
        <time>2014-06-03T14:44:45.000Z</time>
      </trkpt>
      <trkpt lat="48.69543" lon="1.76273">
        <ele>183.60000610352</ele>
        <time>2014-06-03T14:44:49.000Z</time>
      </trkpt>
      <trkpt lat="48.69549" lon="1.76281">
        <ele>183.39999389648</ele>
        <time>2014-06-03T14:44:54.000Z</time>
      </trkpt>
      <trkpt lat="48.69552" lon="1.76289">
        <ele>183.39999389648</ele>
        <time>2014-06-03T14:44:58.000Z</time>
      </trkpt>
      <trkpt lat="48.69554" lon="1.76303">
        <ele>183.19999694824</ele>
        <time>2014-06-03T14:45:04.000Z</time>
      </trkpt>
      <trkpt lat="48.69555" lon="1.76308">
        <ele>183.19999694824</ele>
        <time>2014-06-03T14:45:09.000Z</time>
      </trkpt>
      <trkpt lat="48.69563" lon="1.76318">
        <ele>183</ele>
        <time>2014-06-03T14:45:15.000Z</time>
      </trkpt>
      <trkpt lat="48.69571" lon="1.76324">
        <ele>183</ele>
        <time>2014-06-03T14:45:20.000Z</time>
      </trkpt>
      <trkpt lat="48.69572" lon="1.76325">
        <ele>183</ele>
        <time>2014-06-03T14:45:21.000Z</time>
      </trkpt>
      <trkpt lat="48.6958" lon="1.76332">
        <ele>182.80000305176</ele>
        <time>2014-06-03T14:45:28.000Z</time>
      </trkpt>
      <trkpt lat="48.69588" lon="1.76347">
        <ele>182.60000610352</ele>
        <time>2014-06-03T14:45:36.000Z</time>
      </trkpt>
      <trkpt lat="48.69596" lon="1.76359">
        <ele>182.60000610352</ele>
        <time>2014-06-03T14:45:43.000Z</time>
      </trkpt>
      <trkpt lat="48.69603" lon="1.76369">
        <ele>182.39999389648</ele>
        <time>2014-06-03T14:45:49.000Z</time>
      </trkpt>
      <trkpt lat="48.69608" lon="1.76377">
        <ele>182.39999389648</ele>
        <time>2014-06-03T14:45:53.000Z</time>
      </trkpt>
      <trkpt lat="48.69614" lon="1.76389">
        <ele>182.19999694824</ele>
        <time>2014-06-03T14:45:59.000Z</time>
      </trkpt>
      <trkpt lat="48.69621" lon="1.76399">
        <ele>182</ele>
        <time>2014-06-03T14:46:05.000Z</time>
      </trkpt>
      <trkpt lat="48.69627" lon="1.76405">
        <ele>182</ele>
        <time>2014-06-03T14:46:10.000Z</time>
      </trkpt>
      <trkpt lat="48.6963" lon="1.7641">
        <ele>182</ele>
        <time>2014-06-03T14:46:15.000Z</time>
      </trkpt>
      <trkpt lat="48.69633" lon="1.76419">
        <ele>182</ele>
        <time>2014-06-03T14:46:22.000Z</time>
      </trkpt>
      <trkpt lat="48.69639" lon="1.76431">
        <ele>182</ele>
        <time>2014-06-03T14:46:27.000Z</time>
      </trkpt>
      <trkpt lat="48.69648" lon="1.76445">
        <ele>182</ele>
        <time>2014-06-03T14:46:35.000Z</time>
      </trkpt>
      <trkpt lat="48.69656" lon="1.76458">
        <ele>182</ele>
        <time>2014-06-03T14:46:42.000Z</time>
      </trkpt>
      <trkpt lat="48.69664" lon="1.76469">
        <ele>181.80000305176</ele>
        <time>2014-06-03T14:46:48.000Z</time>
      </trkpt>
      <trkpt lat="48.69671" lon="1.76479">
        <ele>181.80000305176</ele>
        <time>2014-06-03T14:46:54.000Z</time>
      </trkpt>
      <trkpt lat="48.69677" lon="1.76492">
        <ele>181.60000610352</ele>
        <time>2014-06-03T14:47:01.000Z</time>
      </trkpt>
      <trkpt lat="48.69683" lon="1.76503">
        <ele>181.39999389648</ele>
        <time>2014-06-03T14:47:07.000Z</time>
      </trkpt>
      <trkpt lat="48.69687" lon="1.76511">
        <ele>181.19999694824</ele>
        <time>2014-06-03T14:47:11.000Z</time>
      </trkpt>
      <trkpt lat="48.69692" lon="1.76523">
        <ele>181</ele>
        <time>2014-06-03T14:47:18.000Z</time>
      </trkpt>
      <trkpt lat="48.69697" lon="1.76529">
        <ele>181.19999694824</ele>
        <time>2014-06-03T14:47:22.000Z</time>
      </trkpt>
      <trkpt lat="48.69701" lon="1.76534">
        <ele>181.19999694824</ele>
        <time>2014-06-03T14:47:25.000Z</time>
      </trkpt>
      <trkpt lat="48.69709" lon="1.76544">
        <ele>181.39999389648</ele>
        <time>2014-06-03T14:47:31.000Z</time>
      </trkpt>
      <trkpt lat="48.69712" lon="1.76551">
        <ele>181.19999694824</ele>
        <time>2014-06-03T14:47:34.000Z</time>
      </trkpt>
      <trkpt lat="48.69716" lon="1.76555">
        <ele>181.39999389648</ele>
        <time>2014-06-03T14:47:37.000Z</time>
      </trkpt>
      <trkpt lat="48.69722" lon="1.76569">
        <ele>181.19999694824</ele>
        <time>2014-06-03T14:47:44.000Z</time>
      </trkpt>
      <trkpt lat="48.69728" lon="1.76577">
        <ele>181.39999389648</ele>
        <time>2014-06-03T14:47:50.000Z</time>
      </trkpt>
      <trkpt lat="48.69729" lon="1.7658">
        <ele>181.60000610352</ele>
        <time>2014-06-03T14:47:52.000Z</time>
      </trkpt>
      <trkpt lat="48.69738" lon="1.76585">
        <ele>182</ele>
        <time>2014-06-03T14:47:58.000Z</time>
      </trkpt>
      <trkpt lat="48.69742" lon="1.76598">
        <ele>182.39999389648</ele>
        <time>2014-06-03T14:48:05.000Z</time>
      </trkpt>
      <trkpt lat="48.69743" lon="1.76599">
        <ele>182.39999389648</ele>
        <time>2014-06-03T14:48:06.000Z</time>
      </trkpt>
      <trkpt lat="48.6975" lon="1.76609">
        <ele>182.80000305176</ele>
        <time>2014-06-03T14:48:12.000Z</time>
      </trkpt>
      <trkpt lat="48.69759" lon="1.76621">
        <ele>183.39999389648</ele>
        <time>2014-06-03T14:48:21.000Z</time>
      </trkpt>
      <trkpt lat="48.69762" lon="1.76626">
        <ele>183.60000610352</ele>
        <time>2014-06-03T14:48:24.000Z</time>
      </trkpt>
      <trkpt lat="48.69768" lon="1.76633">
        <ele>183.80000305176</ele>
        <time>2014-06-03T14:48:29.000Z</time>
      </trkpt>
      <trkpt lat="48.69778" lon="1.76645">
        <ele>184</ele>
        <time>2014-06-03T14:48:38.000Z</time>
      </trkpt>
      <trkpt lat="48.69779" lon="1.76646">
        <ele>184</ele>
        <time>2014-06-03T14:48:39.000Z</time>
      </trkpt>
      <trkpt lat="48.6979" lon="1.76657">
        <ele>184</ele>
        <time>2014-06-03T14:48:48.000Z</time>
      </trkpt>
      <trkpt lat="48.69798" lon="1.76666">
        <ele>184.19999694824</ele>
        <time>2014-06-03T14:48:55.000Z</time>
      </trkpt>
      <trkpt lat="48.69805" lon="1.76672">
        <ele>184.39999389648</ele>
        <time>2014-06-03T14:49:01.000Z</time>
      </trkpt>
      <trkpt lat="48.69813" lon="1.76682">
        <ele>184.60000610352</ele>
        <time>2014-06-03T14:49:08.000Z</time>
      </trkpt>
      <trkpt lat="48.69821" lon="1.7669">
        <ele>184.80000305176</ele>
        <time>2014-06-03T14:49:15.000Z</time>
      </trkpt>
      <trkpt lat="48.69829" lon="1.76701">
        <ele>185.19999694824</ele>
        <time>2014-06-03T14:49:22.000Z</time>
      </trkpt>
      <trkpt lat="48.69837" lon="1.7671">
        <ele>185.39999389648</ele>
        <time>2014-06-03T14:49:28.000Z</time>
      </trkpt>
      <trkpt lat="48.69844" lon="1.7672">
        <ele>185.60000610352</ele>
        <time>2014-06-03T14:49:35.000Z</time>
      </trkpt>
      <trkpt lat="48.6985" lon="1.76729">
        <ele>185.80000305176</ele>
        <time>2014-06-03T14:49:41.000Z</time>
      </trkpt>
      <trkpt lat="48.69852" lon="1.76731">
        <ele>185.80000305176</ele>
        <time>2014-06-03T14:49:43.000Z</time>
      </trkpt>
      <trkpt lat="48.69861" lon="1.76738">
        <ele>185.80000305176</ele>
        <time>2014-06-03T14:49:50.000Z</time>
      </trkpt>
      <trkpt lat="48.6987" lon="1.76745">
        <ele>185.39999389648</ele>
        <time>2014-06-03T14:49:57.000Z</time>
      </trkpt>
      <trkpt lat="48.69879" lon="1.76755">
        <ele>184.80000305176</ele>
        <time>2014-06-03T14:50:04.000Z</time>
      </trkpt>
      <trkpt lat="48.69883" lon="1.7676">
        <ele>184.39999389648</ele>
        <time>2014-06-03T14:50:08.000Z</time>
      </trkpt>
      <trkpt lat="48.69889" lon="1.76766">
        <ele>184.19999694824</ele>
        <time>2014-06-03T14:50:13.000Z</time>
      </trkpt>
      <trkpt lat="48.69894" lon="1.76776">
        <ele>183.60000610352</ele>
        <time>2014-06-03T14:50:20.000Z</time>
      </trkpt>
      <trkpt lat="48.69901" lon="1.76783">
        <ele>183.19999694824</ele>
        <time>2014-06-03T14:50:26.000Z</time>
      </trkpt>
      <trkpt lat="48.69902" lon="1.76784">
        <ele>183.19999694824</ele>
        <time>2014-06-03T14:50:27.000Z</time>
      </trkpt>
      <trkpt lat="48.69911" lon="1.76794">
        <ele>182.60000610352</ele>
        <time>2014-06-03T14:50:34.000Z</time>
      </trkpt>
      <trkpt lat="48.69917" lon="1.768">
        <ele>182.19999694824</ele>
        <time>2014-06-03T14:50:39.000Z</time>
      </trkpt>
      <trkpt lat="48.69922" lon="1.76806">
        <ele>181.80000305176</ele>
        <time>2014-06-03T14:50:43.000Z</time>
      </trkpt>
      <trkpt lat="48.69935" lon="1.76818">
        <ele>181.19999694824</ele>
        <time>2014-06-03T14:50:52.000Z</time>
      </trkpt>
      <trkpt lat="48.69939" lon="1.76823">
        <ele>181</ele>
        <time>2014-06-03T14:50:56.000Z</time>
      </trkpt>
      <trkpt lat="48.69947" lon="1.7683">
        <ele>181.19999694824</ele>
        <time>2014-06-03T14:51:02.000Z</time>
      </trkpt>
      <trkpt lat="48.69958" lon="1.76841">
        <ele>181.19999694824</ele>
        <time>2014-06-03T14:51:10.000Z</time>
      </trkpt>
      <trkpt lat="48.69965" lon="1.7685">
        <ele>181.39999389648</ele>
        <time>2014-06-03T14:51:16.000Z</time>
      </trkpt>
      <trkpt lat="48.69972" lon="1.76855">
        <ele>181.39999389648</ele>
        <time>2014-06-03T14:51:22.000Z</time>
      </trkpt>
      <trkpt lat="48.69981" lon="1.76866">
        <ele>181.39999389648</ele>
        <time>2014-06-03T14:51:29.000Z</time>
      </trkpt>
      <trkpt lat="48.69989" lon="1.76875">
        <ele>181.60000610352</ele>
        <time>2014-06-03T14:51:35.000Z</time>
      </trkpt>
      <trkpt lat="48.69996" lon="1.76885">
        <ele>181.60000610352</ele>
        <time>2014-06-03T14:51:42.000Z</time>
      </trkpt>
      <trkpt lat="48.70003" lon="1.76894">
        <ele>181.39999389648</ele>
        <time>2014-06-03T14:51:48.000Z</time>
      </trkpt>
      <trkpt lat="48.70013" lon="1.76903">
        <ele>181.60000610352</ele>
        <time>2014-06-03T14:51:56.000Z</time>
      </trkpt>
      <trkpt lat="48.70021" lon="1.76911">
        <ele>181.80000305176</ele>
        <time>2014-06-03T14:52:03.000Z</time>
      </trkpt>
      <trkpt lat="48.70028" lon="1.76921">
        <ele>181.60000610352</ele>
        <time>2014-06-03T14:52:11.000Z</time>
      </trkpt>
      <trkpt lat="48.7003" lon="1.76923">
        <ele>181.60000610352</ele>
        <time>2014-06-03T14:52:15.000Z</time>
      </trkpt>
      <trkpt lat="48.70031" lon="1.76903">
        <ele>182.39999389648</ele>
        <time>2014-06-03T14:53:00.000Z</time>
      </trkpt>
      <trkpt lat="48.70033" lon="1.76895">
        <ele>182.60000610352</ele>
        <time>2014-06-03T14:53:03.000Z</time>
      </trkpt>
      <trkpt lat="48.70041" lon="1.76881">
        <ele>183.39999389648</ele>
        <time>2014-06-03T14:53:11.000Z</time>
      </trkpt>
      <trkpt lat="48.70047" lon="1.76864">
        <ele>184</ele>
        <time>2014-06-03T14:53:20.000Z</time>
      </trkpt>
      <trkpt lat="48.70047" lon="1.76859">
        <ele>184</ele>
        <time>2014-06-03T14:53:23.000Z</time>
      </trkpt>
      <trkpt lat="48.70051" lon="1.76845">
        <ele>184.39999389648</ele>
        <time>2014-06-03T14:53:29.000Z</time>
      </trkpt>
      <trkpt lat="48.70055" lon="1.76828">
        <ele>184.39999389648</ele>
        <time>2014-06-03T14:53:36.000Z</time>
      </trkpt>
      <trkpt lat="48.70053" lon="1.76815">
        <ele>184.60000610352</ele>
        <time>2014-06-03T14:53:42.000Z</time>
      </trkpt>
      <trkpt lat="48.7005" lon="1.76799">
        <ele>184.80000305176</ele>
        <time>2014-06-03T14:53:50.000Z</time>
      </trkpt>
      <trkpt lat="48.7005" lon="1.76797">
        <ele>185</ele>
        <time>2014-06-03T14:53:51.000Z</time>
      </trkpt>
      <trkpt lat="48.70051" lon="1.76789">
        <ele>185.19999694824</ele>
        <time>2014-06-03T14:53:57.000Z</time>
      </trkpt>
      <trkpt lat="48.70056" lon="1.76786">
        <ele>185.19999694824</ele>
        <time>2014-06-03T14:54:04.000Z</time>
      </trkpt>
      <trkpt lat="48.70065" lon="1.76785">
        <ele>185.39999389648</ele>
        <time>2014-06-03T14:54:11.000Z</time>
      </trkpt>
      <trkpt lat="48.70073" lon="1.76783">
        <ele>185.39999389648</ele>
        <time>2014-06-03T14:54:18.000Z</time>
      </trkpt>
      <trkpt lat="48.70082" lon="1.76781">
        <ele>185.39999389648</ele>
        <time>2014-06-03T14:54:24.000Z</time>
      </trkpt>
      <trkpt lat="48.70091" lon="1.76782">
        <ele>185.39999389648</ele>
        <time>2014-06-03T14:54:31.000Z</time>
      </trkpt>
      <trkpt lat="48.70097" lon="1.7678">
        <ele>185.39999389648</ele>
        <time>2014-06-03T14:54:35.000Z</time>
      </trkpt>
      <trkpt lat="48.70104" lon="1.7678">
        <ele>185.39999389648</ele>
        <time>2014-06-03T14:54:40.000Z</time>
      </trkpt>
      <trkpt lat="48.70117" lon="1.76781">
        <ele>184.60000610352</ele>
        <time>2014-06-03T14:54:48.000Z</time>
      </trkpt>
      <trkpt lat="48.70126" lon="1.76781">
        <ele>184.19999694824</ele>
        <time>2014-06-03T14:54:55.000Z</time>
      </trkpt>
      <trkpt lat="48.70137" lon="1.76778">
        <ele>183.60000610352</ele>
        <time>2014-06-03T14:55:01.000Z</time>
      </trkpt>
      <trkpt lat="48.70145" lon="1.76777">
        <ele>183</ele>
        <time>2014-06-03T14:55:08.000Z</time>
      </trkpt>
      <trkpt lat="48.70145" lon="1.76777">
        <ele>183</ele>
        <time>2014-06-03T14:55:09.000Z</time>
      </trkpt>
      <trkpt lat="48.70154" lon="1.76772">
        <ele>182.80000305176</ele>
        <time>2014-06-03T14:55:23.000Z</time>
      </trkpt>
      <trkpt lat="48.70164" lon="1.76764">
        <ele>182.39999389648</ele>
        <time>2014-06-03T14:55:29.000Z</time>
      </trkpt>
      <trkpt lat="48.70171" lon="1.76754">
        <ele>182.39999389648</ele>
        <time>2014-06-03T14:55:36.000Z</time>
      </trkpt>
      <trkpt lat="48.7018" lon="1.76745">
        <ele>182.19999694824</ele>
        <time>2014-06-03T14:55:43.000Z</time>
      </trkpt>
      <trkpt lat="48.70187" lon="1.76737">
        <ele>182</ele>
        <time>2014-06-03T14:55:49.000Z</time>
      </trkpt>
      <trkpt lat="48.70194" lon="1.76728">
        <ele>182</ele>
        <time>2014-06-03T14:55:54.000Z</time>
      </trkpt>
      <trkpt lat="48.70203" lon="1.76719">
        <ele>182</ele>
        <time>2014-06-03T14:56:01.000Z</time>
      </trkpt>
      <trkpt lat="48.70212" lon="1.7671">
        <ele>182</ele>
        <time>2014-06-03T14:56:09.000Z</time>
      </trkpt>
      <trkpt lat="48.70225" lon="1.76703">
        <ele>182</ele>
        <time>2014-06-03T14:56:18.000Z</time>
      </trkpt>
      <trkpt lat="48.7023" lon="1.76699">
        <ele>181.80000305176</ele>
        <time>2014-06-03T14:56:23.000Z</time>
      </trkpt>
      <trkpt lat="48.70235" lon="1.76695">
        <ele>181.80000305176</ele>
        <time>2014-06-03T14:56:26.000Z</time>
      </trkpt>
      <trkpt lat="48.70245" lon="1.7669">
        <ele>181.19999694824</ele>
        <time>2014-06-03T14:56:33.000Z</time>
      </trkpt>
      <trkpt lat="48.70249" lon="1.76687">
        <ele>181</ele>
        <time>2014-06-03T14:56:38.000Z</time>
      </trkpt>
      <trkpt lat="48.7026" lon="1.7668">
        <ele>180.39999389648</ele>
        <time>2014-06-03T14:56:47.000Z</time>
      </trkpt>
      <trkpt lat="48.70269" lon="1.76677">
        <ele>180</ele>
        <time>2014-06-03T14:56:53.000Z</time>
      </trkpt>
      <trkpt lat="48.70277" lon="1.76673">
        <ele>179.80000305176</ele>
        <time>2014-06-03T14:56:58.000Z</time>
      </trkpt>
      <trkpt lat="48.70287" lon="1.76668">
        <ele>179.60000610352</ele>
        <time>2014-06-03T14:57:05.000Z</time>
      </trkpt>
      <trkpt lat="48.70296" lon="1.76664">
        <ele>179.39999389648</ele>
        <time>2014-06-03T14:57:11.000Z</time>
      </trkpt>
      <trkpt lat="48.70298" lon="1.76663">
        <ele>179.39999389648</ele>
        <time>2014-06-03T14:57:13.000Z</time>
      </trkpt>
      <trkpt lat="48.70309" lon="1.76664">
        <ele>179</ele>
        <time>2014-06-03T14:57:27.000Z</time>
      </trkpt>
      <trkpt lat="48.70309" lon="1.76663">
        <ele>179</ele>
        <time>2014-06-03T14:57:31.000Z</time>
      </trkpt>
      <trkpt lat="48.70331" lon="1.76641">
        <ele>178.60000610352</ele>
        <time>2014-06-03T14:58:24.000Z</time>
      </trkpt>
      <trkpt lat="48.70332" lon="1.76639">
        <ele>178.60000610352</ele>
        <time>2014-06-03T14:58:25.000Z</time>
      </trkpt>
      <trkpt lat="48.70338" lon="1.76631">
        <ele>178.39999389648</ele>
        <time>2014-06-03T14:58:30.000Z</time>
      </trkpt>
      <trkpt lat="48.70343" lon="1.76624">
        <ele>178.19999694824</ele>
        <time>2014-06-03T14:58:35.000Z</time>
      </trkpt>
      <trkpt lat="48.70353" lon="1.76617">
        <ele>178</ele>
        <time>2014-06-03T14:58:43.000Z</time>
      </trkpt>
      <trkpt lat="48.70355" lon="1.76616">
        <ele>178</ele>
        <time>2014-06-03T14:58:45.000Z</time>
      </trkpt>
      <trkpt lat="48.7036" lon="1.76612">
        <ele>178.19999694824</ele>
        <time>2014-06-03T14:58:49.000Z</time>
      </trkpt>
      <trkpt lat="48.70372" lon="1.76606">
        <ele>178.39999389648</ele>
        <time>2014-06-03T14:58:57.000Z</time>
      </trkpt>
      <trkpt lat="48.70383" lon="1.76601">
        <ele>178.80000305176</ele>
        <time>2014-06-03T14:59:04.000Z</time>
      </trkpt>
      <trkpt lat="48.70396" lon="1.76594">
        <ele>179.19999694824</ele>
        <time>2014-06-03T14:59:12.000Z</time>
      </trkpt>
      <trkpt lat="48.704" lon="1.76593">
        <ele>179.39999389648</ele>
        <time>2014-06-03T14:59:16.000Z</time>
      </trkpt>
      <trkpt lat="48.70408" lon="1.76588">
        <ele>179.80000305176</ele>
        <time>2014-06-03T14:59:23.000Z</time>
      </trkpt>
      <trkpt lat="48.70415" lon="1.76586">
        <ele>180</ele>
        <time>2014-06-03T14:59:30.000Z</time>
      </trkpt>
      <trkpt lat="48.70421" lon="1.76588">
        <ele>180.19999694824</ele>
        <time>2014-06-03T14:59:36.000Z</time>
      </trkpt>
      <trkpt lat="48.7042" lon="1.76589">
        <ele>180.19999694824</ele>
        <time>2014-06-03T14:59:41.000Z</time>
      </trkpt>
      <trkpt lat="48.70414" lon="1.76589">
        <ele>180</ele>
        <time>2014-06-03T14:59:48.000Z</time>
      </trkpt>
      <trkpt lat="48.70412" lon="1.7659">
        <ele>179.80000305176</ele>
        <time>2014-06-03T14:59:50.000Z</time>
      </trkpt>
      <trkpt lat="48.70401" lon="1.76596">
        <ele>179.39999389648</ele>
        <time>2014-06-03T14:59:58.000Z</time>
      </trkpt>
      <trkpt lat="48.70387" lon="1.76603">
        <ele>178.80000305176</ele>
        <time>2014-06-03T15:00:03.000Z</time>
      </trkpt>
      <trkpt lat="48.7037" lon="1.76615">
        <ele>178.39999389648</ele>
        <time>2014-06-03T15:00:09.000Z</time>
      </trkpt>
      <trkpt lat="48.70362" lon="1.76618">
        <ele>178.19999694824</ele>
        <time>2014-06-03T15:00:16.000Z</time>
      </trkpt>
      <trkpt lat="48.70354" lon="1.76621">
        <ele>178</ele>
        <time>2014-06-03T15:00:23.000Z</time>
      </trkpt>
      <trkpt lat="48.70347" lon="1.76626">
        <ele>178.19999694824</ele>
        <time>2014-06-03T15:00:28.000Z</time>
      </trkpt>
      <trkpt lat="48.70344" lon="1.76629">
        <ele>178.19999694824</ele>
        <time>2014-06-03T15:00:31.000Z</time>
      </trkpt>
      <trkpt lat="48.70337" lon="1.76635">
        <ele>178.39999389648</ele>
        <time>2014-06-03T15:00:38.000Z</time>
      </trkpt>
      <trkpt lat="48.70335" lon="1.76638">
        <ele>178.39999389648</ele>
        <time>2014-06-03T15:00:40.000Z</time>
      </trkpt>
      <trkpt lat="48.70328" lon="1.76652">
        <ele>178.60000610352</ele>
        <time>2014-06-03T15:00:48.000Z</time>
      </trkpt>
      <trkpt lat="48.70327" lon="1.76669">
        <ele>178.60000610352</ele>
        <time>2014-06-03T15:00:56.000Z</time>
      </trkpt>
      <trkpt lat="48.70331" lon="1.76681">
        <ele>178.60000610352</ele>
        <time>2014-06-03T15:01:04.000Z</time>
      </trkpt>
      <trkpt lat="48.70338" lon="1.76684">
        <ele>178.39999389648</ele>
        <time>2014-06-03T15:01:12.000Z</time>
      </trkpt>
      <trkpt lat="48.70347" lon="1.76688">
        <ele>178.19999694824</ele>
        <time>2014-06-03T15:01:19.000Z</time>
      </trkpt>
      <trkpt lat="48.70356" lon="1.76689">
        <ele>178.19999694824</ele>
        <time>2014-06-03T15:01:26.000Z</time>
      </trkpt>
      <trkpt lat="48.70364" lon="1.76694">
        <ele>178.60000610352</ele>
        <time>2014-06-03T15:01:32.000Z</time>
      </trkpt>
      <trkpt lat="48.70371" lon="1.76698">
        <ele>178.80000305176</ele>
        <time>2014-06-03T15:01:40.000Z</time>
      </trkpt>
      <trkpt lat="48.70371" lon="1.76698">
        <ele>178.80000305176</ele>
        <time>2014-06-03T15:01:41.000Z</time>
      </trkpt>
      <trkpt lat="48.70376" lon="1.76704">
        <ele>179</ele>
        <time>2014-06-03T15:05:14.000Z</time>
      </trkpt>
      <trkpt lat="48.70375" lon="1.76705">
        <ele>179</ele>
        <time>2014-06-03T15:05:17.000Z</time>
      </trkpt>
      <trkpt lat="48.70331" lon="1.76685">
        <ele>178.60000610352</ele>
        <time>2014-06-03T15:07:29.000Z</time>
      </trkpt>
      <trkpt lat="48.70324" lon="1.76677">
        <ele>178.80000305176</ele>
        <time>2014-06-03T15:07:33.000Z</time>
      </trkpt>
      <trkpt lat="48.70322" lon="1.76665">
        <ele>178.80000305176</ele>
        <time>2014-06-03T15:07:38.000Z</time>
      </trkpt>
      <trkpt lat="48.70321" lon="1.76655">
        <ele>178.80000305176</ele>
        <time>2014-06-03T15:07:43.000Z</time>
      </trkpt>
      <trkpt lat="48.70322" lon="1.76651">
        <ele>178.80000305176</ele>
        <time>2014-06-03T15:07:45.000Z</time>
      </trkpt>
      <trkpt lat="48.7033" lon="1.76634">
        <ele>178.60000610352</ele>
        <time>2014-06-03T15:07:53.000Z</time>
      </trkpt>
      <trkpt lat="48.70341" lon="1.76624">
        <ele>178.39999389648</ele>
        <time>2014-06-03T15:07:59.000Z</time>
      </trkpt>
      <trkpt lat="48.70348" lon="1.76617">
        <ele>178.19999694824</ele>
        <time>2014-06-03T15:08:04.000Z</time>
      </trkpt>
      <trkpt lat="48.7036" lon="1.7661">
        <ele>178.19999694824</ele>
        <time>2014-06-03T15:08:12.000Z</time>
      </trkpt>
      <trkpt lat="48.7037" lon="1.76605">
        <ele>178.39999389648</ele>
        <time>2014-06-03T15:08:18.000Z</time>
      </trkpt>
      <trkpt lat="48.7038" lon="1.76599">
        <ele>178.60000610352</ele>
        <time>2014-06-03T15:08:25.000Z</time>
      </trkpt>
      <trkpt lat="48.7039" lon="1.76594">
        <ele>179</ele>
        <time>2014-06-03T15:08:33.000Z</time>
      </trkpt>
      <trkpt lat="48.70403" lon="1.76589">
        <ele>179.60000610352</ele>
        <time>2014-06-03T15:08:41.000Z</time>
      </trkpt>
      <trkpt lat="48.70412" lon="1.76584">
        <ele>180</ele>
        <time>2014-06-03T15:08:47.000Z</time>
      </trkpt>
      <trkpt lat="48.70422" lon="1.76578">
        <ele>180.39999389648</ele>
        <time>2014-06-03T15:08:53.000Z</time>
      </trkpt>
      <trkpt lat="48.70434" lon="1.76562">
        <ele>181</ele>
        <time>2014-06-03T15:09:01.000Z</time>
      </trkpt>
      <trkpt lat="48.70437" lon="1.76545">
        <ele>181.39999389648</ele>
        <time>2014-06-03T15:09:06.000Z</time>
      </trkpt>
      <trkpt lat="48.70442" lon="1.76527">
        <ele>181.19999694824</ele>
        <time>2014-06-03T15:09:12.000Z</time>
      </trkpt>
      <trkpt lat="48.70442" lon="1.7652">
        <ele>181.39999389648</ele>
        <time>2014-06-03T15:09:14.000Z</time>
      </trkpt>
      <trkpt lat="48.70444" lon="1.76515">
        <ele>181.39999389648</ele>
        <time>2014-06-03T15:09:17.000Z</time>
      </trkpt>
      <trkpt lat="48.70446" lon="1.76499">
        <ele>181.39999389648</ele>
        <time>2014-06-03T15:09:23.000Z</time>
      </trkpt>
      <trkpt lat="48.70449" lon="1.76486">
        <ele>181</ele>
        <time>2014-06-03T15:09:28.000Z</time>
      </trkpt>
      <trkpt lat="48.70451" lon="1.76466">
        <ele>180</ele>
        <time>2014-06-03T15:09:35.000Z</time>
      </trkpt>
      <trkpt lat="48.70455" lon="1.76449">
        <ele>178.80000305176</ele>
        <time>2014-06-03T15:09:43.000Z</time>
      </trkpt>
      <trkpt lat="48.70457" lon="1.76435">
        <ele>178</ele>
        <time>2014-06-03T15:09:48.000Z</time>
      </trkpt>
      <trkpt lat="48.70462" lon="1.76416">
        <ele>177.19999694824</ele>
        <time>2014-06-03T15:09:56.000Z</time>
      </trkpt>
      <trkpt lat="48.70463" lon="1.7641">
        <ele>177.19999694824</ele>
        <time>2014-06-03T15:09:58.000Z</time>
      </trkpt>
      <trkpt lat="48.7046" lon="1.76396">
        <ele>176.80000305176</ele>
        <time>2014-06-03T15:10:05.000Z</time>
      </trkpt>
      <trkpt lat="48.70458" lon="1.76391">
        <ele>176.60000610352</ele>
        <time>2014-06-03T15:10:07.000Z</time>
      </trkpt>
      <trkpt lat="48.70454" lon="1.76367">
        <ele>175.60000610352</ele>
        <time>2014-06-03T15:10:16.000Z</time>
      </trkpt>
      <trkpt lat="48.70452" lon="1.76356">
        <ele>175.19999694824</ele>
        <time>2014-06-03T15:10:21.000Z</time>
      </trkpt>
      <trkpt lat="48.70451" lon="1.76344">
        <ele>174.60000610352</ele>
        <time>2014-06-03T15:10:27.000Z</time>
      </trkpt>
      <trkpt lat="48.70449" lon="1.76323">
        <ele>173.60000610352</ele>
        <time>2014-06-03T15:10:34.000Z</time>
      </trkpt>
      <trkpt lat="48.70447" lon="1.76311">
        <ele>173.60000610352</ele>
        <time>2014-06-03T15:10:39.000Z</time>
      </trkpt>
      <trkpt lat="48.70447" lon="1.76309">
        <ele>173.60000610352</ele>
        <time>2014-06-03T15:10:40.000Z</time>
      </trkpt>
      <trkpt lat="48.70446" lon="1.76291">
        <ele>173.60000610352</ele>
        <time>2014-06-03T15:10:47.000Z</time>
      </trkpt>
      <trkpt lat="48.70446" lon="1.76288">
        <ele>173.60000610352</ele>
        <time>2014-06-03T15:10:48.000Z</time>
      </trkpt>
      <trkpt lat="48.70447" lon="1.76275">
        <ele>173.60000610352</ele>
        <time>2014-06-03T15:10:53.000Z</time>
      </trkpt>
      <trkpt lat="48.70452" lon="1.76258">
        <ele>173.39999389648</ele>
        <time>2014-06-03T15:11:01.000Z</time>
      </trkpt>
      <trkpt lat="48.70453" lon="1.76256">
        <ele>173.39999389648</ele>
        <time>2014-06-03T15:11:02.000Z</time>
      </trkpt>
      <trkpt lat="48.70454" lon="1.76252">
        <ele>173.39999389648</ele>
        <time>2014-06-03T15:11:04.000Z</time>
      </trkpt>
      <trkpt lat="48.70458" lon="1.7624">
        <ele>172.80000305176</ele>
        <time>2014-06-03T15:11:10.000Z</time>
      </trkpt>
      <trkpt lat="48.7046" lon="1.76226">
        <ele>172.80000305176</ele>
        <time>2014-06-03T15:11:15.000Z</time>
      </trkpt>
      <trkpt lat="48.70462" lon="1.76213">
        <ele>173</ele>
        <time>2014-06-03T15:11:23.000Z</time>
      </trkpt>
      <trkpt lat="48.70461" lon="1.76206">
        <ele>173.19999694824</ele>
        <time>2014-06-03T15:11:26.000Z</time>
      </trkpt>
      <trkpt lat="48.70456" lon="1.7619">
        <ele>174</ele>
        <time>2014-06-03T15:11:33.000Z</time>
      </trkpt>
      <trkpt lat="48.70455" lon="1.76184">
        <ele>174.19999694824</ele>
        <time>2014-06-03T15:11:36.000Z</time>
      </trkpt>
      <trkpt lat="48.70452" lon="1.76163">
        <ele>175</ele>
        <time>2014-06-03T15:11:44.000Z</time>
      </trkpt>
      <trkpt lat="48.70453" lon="1.76157">
        <ele>175.19999694824</ele>
        <time>2014-06-03T15:11:46.000Z</time>
      </trkpt>
      <trkpt lat="48.70456" lon="1.76139">
        <ele>175.19999694824</ele>
        <time>2014-06-03T15:11:53.000Z</time>
      </trkpt>
      <trkpt lat="48.70458" lon="1.76121">
        <ele>175.39999389648</ele>
        <time>2014-06-03T15:11:59.000Z</time>
      </trkpt>
      <trkpt lat="48.70458" lon="1.76115">
        <ele>175.39999389648</ele>
        <time>2014-06-03T15:12:01.000Z</time>
      </trkpt>
      <trkpt lat="48.70459" lon="1.76106">
        <ele>175.60000610352</ele>
        <time>2014-06-03T15:12:06.000Z</time>
      </trkpt>
      <trkpt lat="48.70465" lon="1.76095">
        <ele>175.39999389648</ele>
        <time>2014-06-03T15:12:11.000Z</time>
      </trkpt>
      <trkpt lat="48.70467" lon="1.76085">
        <ele>175.39999389648</ele>
        <time>2014-06-03T15:12:15.000Z</time>
      </trkpt>
      <trkpt lat="48.70469" lon="1.76073">
        <ele>175.39999389648</ele>
        <time>2014-06-03T15:12:21.000Z</time>
      </trkpt>
      <trkpt lat="48.7047" lon="1.76068">
        <ele>175.60000610352</ele>
        <time>2014-06-03T15:12:24.000Z</time>
      </trkpt>
      <trkpt lat="48.70472" lon="1.76055">
        <ele>176</ele>
        <time>2014-06-03T15:12:30.000Z</time>
      </trkpt>
      <trkpt lat="48.70476" lon="1.76038">
        <ele>176.80000305176</ele>
        <time>2014-06-03T15:12:36.000Z</time>
      </trkpt>
      <trkpt lat="48.70478" lon="1.76029">
        <ele>177</ele>
        <time>2014-06-03T15:12:40.000Z</time>
      </trkpt>
      <trkpt lat="48.70481" lon="1.76017">
        <ele>177.60000610352</ele>
        <time>2014-06-03T15:12:46.000Z</time>
      </trkpt>
      <trkpt lat="48.70484" lon="1.76001">
        <ele>178.60000610352</ele>
        <time>2014-06-03T15:12:53.000Z</time>
      </trkpt>
      <trkpt lat="48.70489" lon="1.7599">
        <ele>179</ele>
        <time>2014-06-03T15:12:57.000Z</time>
      </trkpt>
      <trkpt lat="48.70495" lon="1.75973">
        <ele>179</ele>
        <time>2014-06-03T15:13:05.000Z</time>
      </trkpt>
      <trkpt lat="48.705" lon="1.75961">
        <ele>179.19999694824</ele>
        <time>2014-06-03T15:13:11.000Z</time>
      </trkpt>
      <trkpt lat="48.70503" lon="1.75957">
        <ele>179.39999389648</ele>
        <time>2014-06-03T15:13:13.000Z</time>
      </trkpt>
      <trkpt lat="48.7051" lon="1.75951">
        <ele>179.80000305176</ele>
        <time>2014-06-03T15:13:17.000Z</time>
      </trkpt>
      <trkpt lat="48.70518" lon="1.7594">
        <ele>180.19999694824</ele>
        <time>2014-06-03T15:13:24.000Z</time>
      </trkpt>
      <trkpt lat="48.70527" lon="1.75926">
        <ele>180.60000610352</ele>
        <time>2014-06-03T15:13:31.000Z</time>
      </trkpt>
      <trkpt lat="48.70532" lon="1.75918">
        <ele>180.60000610352</ele>
        <time>2014-06-03T15:13:36.000Z</time>
      </trkpt>
      <trkpt lat="48.70534" lon="1.75911">
        <ele>180.80000305176</ele>
        <time>2014-06-03T15:13:40.000Z</time>
      </trkpt>
      <trkpt lat="48.70541" lon="1.75897">
        <ele>180.60000610352</ele>
        <time>2014-06-03T15:13:48.000Z</time>
      </trkpt>
      <trkpt lat="48.70544" lon="1.75886">
        <ele>180.80000305176</ele>
        <time>2014-06-03T15:13:52.000Z</time>
      </trkpt>
      <trkpt lat="48.70551" lon="1.75867">
        <ele>180.60000610352</ele>
        <time>2014-06-03T15:14:02.000Z</time>
      </trkpt>
      <trkpt lat="48.70552" lon="1.75864">
        <ele>180.60000610352</ele>
        <time>2014-06-03T15:14:03.000Z</time>
      </trkpt>
      <trkpt lat="48.7056" lon="1.7585">
        <ele>180</ele>
        <time>2014-06-03T15:14:11.000Z</time>
      </trkpt>
      <trkpt lat="48.70565" lon="1.75841">
        <ele>179.39999389648</ele>
        <time>2014-06-03T15:14:16.000Z</time>
      </trkpt>
      <trkpt lat="48.70567" lon="1.75836">
        <ele>179.19999694824</ele>
        <time>2014-06-03T15:14:18.000Z</time>
      </trkpt>
      <trkpt lat="48.7057" lon="1.75823">
        <ele>178.60000610352</ele>
        <time>2014-06-03T15:14:24.000Z</time>
      </trkpt>
      <trkpt lat="48.70575" lon="1.7581">
        <ele>178.19999694824</ele>
        <time>2014-06-03T15:14:30.000Z</time>
      </trkpt>
      <trkpt lat="48.70582" lon="1.758">
        <ele>177.60000610352</ele>
        <time>2014-06-03T15:14:36.000Z</time>
      </trkpt>
      <trkpt lat="48.70589" lon="1.75786">
        <ele>177.80000305176</ele>
        <time>2014-06-03T15:14:44.000Z</time>
      </trkpt>
      <trkpt lat="48.70597" lon="1.75771">
        <ele>177.80000305176</ele>
        <time>2014-06-03T15:14:52.000Z</time>
      </trkpt>
      <trkpt lat="48.70602" lon="1.75763">
        <ele>177.80000305176</ele>
        <time>2014-06-03T15:14:57.000Z</time>
      </trkpt>
      <trkpt lat="48.7061" lon="1.75752">
        <ele>178</ele>
        <time>2014-06-03T15:15:04.000Z</time>
      </trkpt>
      <trkpt lat="48.70614" lon="1.75745">
        <ele>178.19999694824</ele>
        <time>2014-06-03T15:15:09.000Z</time>
      </trkpt>
      <trkpt lat="48.70618" lon="1.75731">
        <ele>178.60000610352</ele>
        <time>2014-06-03T15:15:16.000Z</time>
      </trkpt>
      <trkpt lat="48.70623" lon="1.75723">
        <ele>179</ele>
        <time>2014-06-03T15:15:21.000Z</time>
      </trkpt>
      <trkpt lat="48.7063" lon="1.75709">
        <ele>179.39999389648</ele>
        <time>2014-06-03T15:15:29.000Z</time>
      </trkpt>
      <trkpt lat="48.70635" lon="1.757">
        <ele>179.80000305176</ele>
        <time>2014-06-03T15:15:34.000Z</time>
      </trkpt>
      <trkpt lat="48.70637" lon="1.75696">
        <ele>180</ele>
        <time>2014-06-03T15:15:37.000Z</time>
      </trkpt>
      <trkpt lat="48.70642" lon="1.75695">
        <ele>179.80000305176</ele>
        <time>2014-06-03T15:15:43.000Z</time>
      </trkpt>
      <trkpt lat="48.70644" lon="1.75694">
        <ele>179.60000610352</ele>
        <time>2014-06-03T15:15:50.000Z</time>
      </trkpt>
      <trkpt lat="48.70646" lon="1.75695">
        <ele>179.39999389648</ele>
        <time>2014-06-03T15:16:54.000Z</time>
      </trkpt>
      <trkpt lat="48.70646" lon="1.75696">
        <ele>179.39999389648</ele>
        <time>2014-06-03T15:16:57.000Z</time>
      </trkpt>
      <trkpt lat="48.70641" lon="1.75697">
        <ele>179.60000610352</ele>
        <time>2014-06-03T15:17:27.000Z</time>
      </trkpt>
      <trkpt lat="48.70641" lon="1.75696">
        <ele>179.80000305176</ele>
        <time>2014-06-03T15:17:29.000Z</time>
      </trkpt>
      <trkpt lat="48.70641" lon="1.75663">
        <ele>180.39999389648</ele>
        <time>2014-06-03T15:18:27.000Z</time>
      </trkpt>
      <trkpt lat="48.70636" lon="1.75654">
        <ele>181</ele>
        <time>2014-06-03T15:18:31.000Z</time>
      </trkpt>
      <trkpt lat="48.70637" lon="1.75649">
        <ele>180.80000305176</ele>
        <time>2014-06-03T15:18:33.000Z</time>
      </trkpt>
      <trkpt lat="48.70638" lon="1.75632">
        <ele>180.39999389648</ele>
        <time>2014-06-03T15:18:39.000Z</time>
      </trkpt>
      <trkpt lat="48.70641" lon="1.75626">
        <ele>179.80000305176</ele>
        <time>2014-06-03T15:18:42.000Z</time>
      </trkpt>
      <trkpt lat="48.7064" lon="1.75622">
        <ele>179.80000305176</ele>
        <time>2014-06-03T15:18:46.000Z</time>
      </trkpt>
      <trkpt lat="48.70647" lon="1.75604">
        <ele>178.80000305176</ele>
        <time>2014-06-03T15:18:53.000Z</time>
      </trkpt>
      <trkpt lat="48.70652" lon="1.75591">
        <ele>178.39999389648</ele>
        <time>2014-06-03T15:18:59.000Z</time>
      </trkpt>
      <trkpt lat="48.70657" lon="1.75579">
        <ele>177.80000305176</ele>
        <time>2014-06-03T15:19:04.000Z</time>
      </trkpt>
      <trkpt lat="48.70662" lon="1.75568">
        <ele>177</ele>
        <time>2014-06-03T15:19:10.000Z</time>
      </trkpt>
      <trkpt lat="48.70671" lon="1.75553">
        <ele>174.80000305176</ele>
        <time>2014-06-03T15:19:18.000Z</time>
      </trkpt>
      <trkpt lat="48.70676" lon="1.75542">
        <ele>174.39999389648</ele>
        <time>2014-06-03T15:19:25.000Z</time>
      </trkpt>
      <trkpt lat="48.70677" lon="1.7554">
        <ele>174.39999389648</ele>
        <time>2014-06-03T15:19:26.000Z</time>
      </trkpt>
      <trkpt lat="48.70683" lon="1.7553">
        <ele>174</ele>
        <time>2014-06-03T15:19:33.000Z</time>
      </trkpt>
      <trkpt lat="48.70684" lon="1.75529">
        <ele>174</ele>
        <time>2014-06-03T15:19:34.000Z</time>
      </trkpt>
      <trkpt lat="48.70689" lon="1.75519">
        <ele>173.60000610352</ele>
        <time>2014-06-03T15:19:40.000Z</time>
      </trkpt>
      <trkpt lat="48.70694" lon="1.75504">
        <ele>173</ele>
        <time>2014-06-03T15:19:48.000Z</time>
      </trkpt>
      <trkpt lat="48.70698" lon="1.75493">
        <ele>172.80000305176</ele>
        <time>2014-06-03T15:19:55.000Z</time>
      </trkpt>
      <trkpt lat="48.70699" lon="1.75487">
        <ele>172.60000610352</ele>
        <time>2014-06-03T15:19:58.000Z</time>
      </trkpt>
      <trkpt lat="48.70699" lon="1.75481">
        <ele>172.60000610352</ele>
        <time>2014-06-03T15:20:04.000Z</time>
      </trkpt>
      <trkpt lat="48.70696" lon="1.75471">
        <ele>172.39999389648</ele>
        <time>2014-06-03T15:20:31.000Z</time>
      </trkpt>
      <trkpt lat="48.70694" lon="1.75468">
        <ele>172.39999389648</ele>
        <time>2014-06-03T15:20:32.000Z</time>
      </trkpt>
    </trkseg>
  </trk>
</gpx>